CPA812 VHHH-KBOS
Flight info
| Callsign | CPA812 |
|---|---|
| Flight time | 14h 11m |
| Altitude | 33000 |
| Route | DALOL V631 ENVAR M750 IMPAL Y755 CARDS DCT HIOTI DCT CBE Y121 SWING Y88 DAIGO Y889 OATIS R580 ONEIL/N0488F350 DCT ECOMI DCT NAYLD DCT MCG DCT ORT/N0483F370 NCA15 EMSOW DCT 62N130W 60N120W 58N112W DCT TULAG Q963 PETMA DCT KENRU DCT 5330N10000W 49N090W/N0492F390 DCT SSM DCT NOTAP DCT YEE DCT TULEG DCT PONCT JFUND2 |
| Aircraft | A35K/H-SDE2E3GHIJ3J4J5LM1ORWXY/LB1D1 |
Departure
| Time | 2026-05-04 11:38 |
|---|---|
| Airport | Hong Kong International Airport (VHHH) |
Arrival
| Time | 2026-05-05 01:49 |
|---|---|
| Airport | Boston Logan International Airport (KBOS) |
| Time | Latitude | Longitude | Altitude | Speed | Heading |
|---|---|---|---|---|---|
| 2026-05-04 10:39 | 22.31108 | 113.92743 | 38 ft | 0 kts | 296° |
| 2026-05-04 11:22 | 22.31093 | 113.92777 | 35 ft | 0 kts | 293° |
| 2026-05-04 11:23 | 22.31083 | 113.92798 | 38 ft | 8 kts | 295° |
| 2026-05-04 11:24 | 22.31095 | 113.92771 | 38 ft | 4 kts | 294° |
| 2026-05-04 11:25 | 22.31086 | 113.92799 | 35 ft | 4 kts | 279° |
| 2026-05-04 11:25 | 22.31085 | 113.92827 | 34 ft | 4 kts | 258° |
| 2026-05-04 11:25 | 22.31095 | 113.92851 | 36 ft | 4 kts | 213° |
| 2026-05-04 11:26 | 22.31087 | 113.92848 | 34 ft | 0 kts | 206° |
| 2026-05-04 11:28 | 22.31081 | 113.92845 | 34 ft | 2 kts | 206° |
| 2026-05-04 11:28 | 22.31052 | 113.92829 | 38 ft | 7 kts | 207° |
| 2026-05-04 11:28 | 22.31009 | 113.92806 | 38 ft | 8 kts | 205° |
| 2026-05-04 11:29 | 22.30952 | 113.92777 | 38 ft | 9 kts | 205° |
| 2026-05-04 11:29 | 22.30890 | 113.92745 | 38 ft | 11 kts | 205° |
| 2026-05-04 11:29 | 22.30832 | 113.92689 | 38 ft | 12 kts | 240° |
| 2026-05-04 11:29 | 22.30798 | 113.92594 | 38 ft | 15 kts | 250° |
| 2026-05-04 11:31 | 22.30491 | 113.91640 | 38 ft | 24 kts | 250° |
| 2026-05-04 11:33 | 22.30081 | 113.90369 | 38 ft | 29 kts | 251° |
| 2026-05-04 11:33 | 22.30015 | 113.90163 | 38 ft | 29 kts | 250° |
| 2026-05-04 11:33 | 22.29952 | 113.89971 | 38 ft | 24 kts | 251° |
| 2026-05-04 11:34 | 22.29898 | 113.89803 | 38 ft | 20 kts | 251° |
| 2026-05-04 11:34 | 22.29864 | 113.89745 | 38 ft | 11 kts | 213° |
| 2026-05-04 11:34 | 22.29794 | 113.89747 | 38 ft | 10 kts | 162° |
| 2026-05-04 11:34 | 22.29754 | 113.89762 | 38 ft | 0 kts | 161° |
| 2026-05-04 11:35 | 22.29753 | 113.89762 | 38 ft | 1 kts | 161° |
| 2026-05-04 11:36 | 22.29722 | 113.89773 | 38 ft | 8 kts | 161° |
| 2026-05-04 11:36 | 22.29632 | 113.89810 | 35 ft | 8 kts | 143° |
| 2026-05-04 11:36 | 22.29631 | 113.89831 | 35 ft | 4 kts | 76° |
| 2026-05-04 11:36 | 22.29635 | 113.89846 | 35 ft | 0 kts | 73° |
| 2026-05-04 11:37 | 22.29636 | 113.89847 | 35 ft | 2 kts | 73° |
| 2026-05-04 11:37 | 22.29689 | 113.90010 | 36 ft | 58 kts | 70° |
| 2026-05-04 11:37 | 22.29905 | 113.90678 | 37 ft | 129 kts | 70° |
| 2026-05-04 11:37 | 22.30266 | 113.91796 | 67 ft | 185 kts | 70° |
| 2026-05-04 11:38 | 22.30711 | 113.93097 | 915 ft | 180 kts | 69° |
| 2026-05-04 11:38 | 22.31166 | 113.94394 | 1499 ft | 192 kts | 70° |
| 2026-05-04 11:38 | 22.31639 | 113.95782 | 1806 ft | 202 kts | 71° |
| 2026-05-04 11:38 | 22.32111 | 113.97248 | 2174 ft | 208 kts | 73° |
| 2026-05-04 11:39 | 22.32557 | 113.98724 | 2634 ft | 208 kts | 74° |
| 2026-05-04 11:39 | 22.32983 | 114.00241 | 3046 ft | 211 kts | 75° |
| 2026-05-04 11:40 | 22.30226 | 114.08569 | 4914 ft | 250 kts | 166° |
| 2026-05-04 11:41 | 22.28459 | 114.08807 | 5247 ft | 257 kts | 181° |
| 2026-05-04 11:41 | 22.26650 | 114.08786 | 5590 ft | 266 kts | 183° |
| 2026-05-04 11:41 | 22.24760 | 114.08732 | 6006 ft | 272 kts | 184° |
| 2026-05-04 11:41 | 22.22871 | 114.08694 | 6516 ft | 275 kts | 184° |
| 2026-05-04 11:42 | 22.20958 | 114.08666 | 7023 ft | 277 kts | 184° |
| 2026-05-04 11:42 | 22.19009 | 114.08652 | 7532 ft | 280 kts | 182° |
| 2026-05-04 11:42 | 22.17073 | 114.09013 | 8029 ft | 290 kts | 162° |
| 2026-05-04 11:42 | 22.15403 | 114.10278 | 8564 ft | 300 kts | 132° |
| 2026-05-04 11:43 | 22.14290 | 114.12189 | 9129 ft | 305 kts | 120° |
| 2026-05-04 11:43 | 22.13335 | 114.14239 | 9611 ft | 309 kts | 119° |
| 2026-05-04 11:43 | 22.12368 | 114.16342 | 10121 ft | 313 kts | 119° |
| 2026-05-04 11:43 | 22.11371 | 114.18478 | 10377 ft | 326 kts | 120° |
| 2026-05-04 11:44 | 22.10333 | 114.20681 | 10613 ft | 339 kts | 120° |
| 2026-05-04 11:44 | 22.09231 | 114.23007 | 10861 ft | 352 kts | 120° |
| 2026-05-04 11:44 | 22.08042 | 114.25364 | 11076 ft | 363 kts | 126° |
| 2026-05-04 11:44 | 22.06306 | 114.27356 | 11262 ft | 368 kts | 145° |
| 2026-05-04 11:45 | 22.04244 | 114.29023 | 11478 ft | 378 kts | 148° |
| 2026-05-04 11:45 | 22.02056 | 114.30715 | 11689 ft | 389 kts | 148° |
| 2026-05-04 11:45 | 21.99825 | 114.32448 | 11891 ft | 399 kts | 147° |
| 2026-05-04 11:45 | 21.97565 | 114.34216 | 12140 ft | 407 kts | 147° |
| 2026-05-04 11:46 | 21.95273 | 114.36017 | 12521 ft | 411 kts | 147° |
| 2026-05-04 11:46 | 21.92938 | 114.37860 | 12918 ft | 413 kts | 147° |
| 2026-05-04 11:46 | 21.90625 | 114.39679 | 13351 ft | 415 kts | 148° |
| 2026-05-04 11:46 | 21.88278 | 114.41524 | 13828 ft | 415 kts | 148° |
| 2026-05-04 11:47 | 21.86066 | 114.43514 | 14127 ft | 423 kts | 136° |
| 2026-05-04 11:47 | 21.84387 | 114.46138 | 14395 ft | 434 kts | 117° |
| 2026-05-04 11:47 | 21.83390 | 114.49247 | 14748 ft | 439 kts | 108° |
| 2026-05-04 11:47 | 21.82605 | 114.52409 | 15048 ft | 442 kts | 107° |
| 2026-05-04 11:48 | 21.81815 | 114.55622 | 15375 ft | 445 kts | 107° |
| 2026-05-04 11:48 | 21.81004 | 114.58856 | 15711 ft | 447 kts | 107° |
| 2026-05-04 11:48 | 21.80187 | 114.62067 | 16026 ft | 449 kts | 107° |
| 2026-05-04 11:48 | 21.79349 | 114.65331 | 16361 ft | 450 kts | 107° |
| 2026-05-04 11:49 | 21.78514 | 114.68572 | 16648 ft | 453 kts | 107° |
| 2026-05-04 11:49 | 21.77669 | 114.71836 | 16946 ft | 456 kts | 107° |
| 2026-05-04 11:49 | 21.76814 | 114.75136 | 17250 ft | 458 kts | 107° |
| 2026-05-04 11:49 | 21.75951 | 114.78461 | 17537 ft | 460 kts | 107° |
| 2026-05-04 11:50 | 21.75092 | 114.81771 | 17807 ft | 463 kts | 107° |
| 2026-05-04 11:50 | 21.74440 | 114.85155 | 18076 ft | 467 kts | 97° |
| 2026-05-04 11:50 | 21.74191 | 114.88671 | 18355 ft | 470 kts | 92° |
| 2026-05-04 11:50 | 21.74142 | 114.92172 | 18588 ft | 472 kts | 90° |
| 2026-05-04 11:51 | 21.74183 | 114.95720 | 18829 ft | 474 kts | 89° |
| 2026-05-04 11:51 | 21.74248 | 114.99259 | 19083 ft | 476 kts | 89° |
| 2026-05-04 11:51 | 21.74306 | 115.02855 | 19338 ft | 477 kts | 90° |
| 2026-05-04 11:51 | 21.74342 | 115.06393 | 19558 ft | 480 kts | 90° |
| 2026-05-04 11:52 | 21.74361 | 115.10028 | 19804 ft | 482 kts | 90° |
| 2026-05-04 11:52 | 21.74365 | 115.13607 | 20048 ft | 484 kts | 91° |
| 2026-05-04 11:52 | 21.74362 | 115.17264 | 20294 ft | 486 kts | 91° |
| 2026-05-04 11:52 | 21.74354 | 115.20876 | 20540 ft | 488 kts | 91° |
| 2026-05-04 11:53 | 21.74348 | 115.24548 | 20788 ft | 489 kts | 91° |
| 2026-05-04 11:53 | 21.74340 | 115.28202 | 21035 ft | 491 kts | 91° |
| 2026-05-04 11:53 | 21.74331 | 115.31905 | 21282 ft | 493 kts | 91° |
| 2026-05-04 11:53 | 21.74320 | 115.35581 | 21493 ft | 497 kts | 91° |
| 2026-05-04 11:55 | 21.74231 | 115.61932 | 23259 ft | 511 kts | 91° |
| 2026-05-04 11:55 | 21.74216 | 115.65795 | 23501 ft | 513 kts | 91° |
| 2026-05-04 11:56 | 21.74202 | 115.69602 | 23753 ft | 514 kts | 91° |
| 2026-05-04 11:56 | 21.74187 | 115.73453 | 23976 ft | 516 kts | 91° |
| 2026-05-04 11:56 | 21.74171 | 115.77319 | 24185 ft | 518 kts | 91° |
| 2026-05-04 11:56 | 21.74154 | 115.81217 | 24407 ft | 519 kts | 91° |
| 2026-05-04 11:57 | 21.74135 | 115.85087 | 24637 ft | 521 kts | 91° |
| 2026-05-04 11:57 | 21.74115 | 115.89010 | 24869 ft | 523 kts | 91° |
| 2026-05-04 11:57 | 21.74094 | 115.92916 | 25098 ft | 525 kts | 92° |
| 2026-05-04 11:57 | 21.74073 | 115.96827 | 25337 ft | 526 kts | 92° |
| 2026-05-04 11:58 | 21.74050 | 116.00751 | 25607 ft | 527 kts | 92° |
| 2026-05-04 11:58 | 21.74026 | 116.04732 | 25865 ft | 529 kts | 92° |
| 2026-05-04 11:58 | 21.74001 | 116.08682 | 26111 ft | 531 kts | 92° |
| 2026-05-04 11:58 | 21.73975 | 116.12643 | 26367 ft | 533 kts | 92° |
| 2026-05-04 11:59 | 21.73947 | 116.16671 | 26643 ft | 535 kts | 92° |
| 2026-05-04 11:59 | 21.73919 | 116.20660 | 26903 ft | 537 kts | 92° |
| 2026-05-04 11:59 | 21.73890 | 116.24717 | 27168 ft | 539 kts | 92° |
| 2026-05-04 11:59 | 21.73860 | 116.28731 | 27425 ft | 541 kts | 92° |
| 2026-05-04 12:00 | 21.73828 | 116.32810 | 27680 ft | 544 kts | 92° |
| 2026-05-04 12:00 | 21.73796 | 116.36869 | 27928 ft | 546 kts | 92° |
| 2026-05-04 12:00 | 21.73763 | 116.40928 | 28182 ft | 548 kts | 92° |
| 2026-05-04 12:00 | 21.73728 | 116.45060 | 28426 ft | 550 kts | 92° |
| 2026-05-04 12:01 | 21.73692 | 116.49162 | 28664 ft | 551 kts | 92° |
| 2026-05-04 12:01 | 21.73655 | 116.53266 | 28947 ft | 552 kts | 92° |
| 2026-05-04 12:02 | 21.73827 | 116.77966 | 30650 ft | 554 kts | 81° |
| 2026-05-04 12:03 | 21.74760 | 116.81977 | 30777 ft | 557 kts | 72° |
| 2026-05-04 12:03 | 21.76037 | 116.85946 | 30933 ft | 559 kts | 70° |
| 2026-05-04 12:03 | 21.77402 | 116.89823 | 31184 ft | 558 kts | 68° |
| 2026-05-04 12:03 | 21.78829 | 116.93718 | 31438 ft | 557 kts | 68° |
| 2026-05-04 12:04 | 21.80262 | 116.97582 | 31677 ft | 557 kts | 68° |
| 2026-05-04 12:04 | 21.81704 | 117.01481 | 31906 ft | 557 kts | 68° |
| 2026-05-04 12:04 | 21.83121 | 117.05340 | 32127 ft | 557 kts | 68° |
| 2026-05-04 12:04 | 21.84543 | 117.09244 | 32346 ft | 557 kts | 68° |
| 2026-05-04 12:05 | 21.85939 | 117.13103 | 32540 ft | 557 kts | 68° |
| 2026-05-04 12:05 | 21.87335 | 117.16976 | 32765 ft | 556 kts | 68° |
| 2026-05-04 12:05 | 21.88742 | 117.20887 | 32982 ft | 556 kts | 68° |
| 2026-05-04 12:05 | 21.90127 | 117.24741 | 33047 ft | 559 kts | 68° |
| 2026-05-04 12:06 | 21.92946 | 117.32596 | 33047 ft | 561 kts | 68° |
| 2026-05-04 12:06 | 21.95759 | 117.40445 | 33047 ft | 563 kts | 68° |
| 2026-05-04 12:07 | 21.98620 | 117.48325 | 33039 ft | 563 kts | 64° |
| 2026-05-04 12:07 | 22.02360 | 117.55642 | 33049 ft | 560 kts | 57° |
| 2026-05-04 12:08 | 22.06414 | 117.62834 | 33052 ft | 560 kts | 56° |
| 2026-05-04 12:08 | 22.10484 | 117.69945 | 33053 ft | 560 kts | 56° |
| 2026-05-04 12:09 | 22.14563 | 117.77106 | 33056 ft | 560 kts | 56° |
| 2026-05-04 12:09 | 22.18640 | 117.84304 | 33057 ft | 562 kts | 56° |
| 2026-05-04 12:10 | 22.22694 | 117.91484 | 33058 ft | 562 kts | 56° |
| 2026-05-04 12:10 | 22.26774 | 117.98718 | 33058 ft | 562 kts | 56° |
| 2026-05-04 12:11 | 22.30848 | 118.05869 | 33057 ft | 562 kts | 55° |
| 2026-05-04 12:11 | 22.35036 | 118.13003 | 33061 ft | 561 kts | 55° |
| 2026-05-04 12:12 | 22.39219 | 118.20128 | 33070 ft | 563 kts | 55° |
| 2026-05-04 12:12 | 22.43378 | 118.27332 | 33052 ft | 564 kts | 56° |
| 2026-05-04 12:14 | 22.59719 | 118.56300 | 33058 ft | 563 kts | 56° |
| 2026-05-04 12:15 | 22.63840 | 118.63521 | 33057 ft | 563 kts | 56° |
| 2026-05-04 12:15 | 22.67941 | 118.70708 | 33052 ft | 563 kts | 56° |
| 2026-05-04 12:16 | 22.72058 | 118.77949 | 33063 ft | 563 kts | 56° |
| 2026-05-04 12:16 | 22.76161 | 118.85185 | 33065 ft | 563 kts | 56° |
| 2026-05-04 12:17 | 22.80238 | 118.92384 | 33058 ft | 563 kts | 56° |
| 2026-05-04 12:17 | 22.84339 | 118.99633 | 33049 ft | 565 kts | 56° |
| 2026-05-04 12:18 | 22.88442 | 119.06897 | 33061 ft | 565 kts | 56° |
| 2026-05-04 12:18 | 22.92542 | 119.14166 | 33048 ft | 565 kts | 56° |
| 2026-05-04 12:19 | 22.96652 | 119.21463 | 33060 ft | 565 kts | 56° |
| 2026-05-04 12:19 | 23.00719 | 119.28695 | 33067 ft | 564 kts | 56° |
| 2026-05-04 12:20 | 23.04139 | 119.34782 | 33057 ft | 566 kts | 56° |
| 2026-05-04 12:20 | 23.08909 | 119.43286 | 33051 ft | 567 kts | 57° |
| 2026-05-04 12:21 | 23.12350 | 119.49428 | 33047 ft | 567 kts | 57° |
| 2026-05-04 12:21 | 23.16427 | 119.56718 | 33050 ft | 567 kts | 57° |
| 2026-05-04 12:22 | 23.20500 | 119.64014 | 33037 ft | 566 kts | 57° |
| 2026-05-04 12:22 | 23.24607 | 119.71366 | 33041 ft | 568 kts | 57° |
| 2026-05-04 12:23 | 23.28690 | 119.78685 | 33041 ft | 569 kts | 57° |
| 2026-05-04 12:23 | 23.32802 | 119.86072 | 33039 ft | 569 kts | 57° |
| 2026-05-04 12:24 | 23.37240 | 119.93094 | 33043 ft | 563 kts | 44° |
| 2026-05-04 12:24 | 23.42752 | 119.99144 | 33057 ft | 561 kts | 40° |
| 2026-05-04 12:25 | 23.48429 | 120.04982 | 33042 ft | 563 kts | 39° |
| 2026-05-04 12:25 | 23.54124 | 120.10794 | 33034 ft | 563 kts | 39° |
| 2026-05-04 12:26 | 23.59829 | 120.16656 | 33037 ft | 563 kts | 39° |
| 2026-05-04 12:26 | 23.65515 | 120.22530 | 33053 ft | 563 kts | 39° |
| 2026-05-04 12:27 | 23.71218 | 120.28433 | 33044 ft | 565 kts | 39° |
| 2026-05-04 12:27 | 23.76896 | 120.34317 | 33038 ft | 565 kts | 39° |
| 2026-05-04 12:28 | 23.82583 | 120.40218 | 33047 ft | 565 kts | 39° |
| 2026-05-04 12:28 | 23.88284 | 120.46141 | 33064 ft | 565 kts | 39° |
| 2026-05-04 12:29 | 23.93986 | 120.52085 | 33052 ft | 566 kts | 39° |
| 2026-05-04 12:29 | 23.99650 | 120.58062 | 33059 ft | 566 kts | 40° |
| 2026-05-04 12:30 | 24.05310 | 120.64053 | 33070 ft | 566 kts | 40° |
| 2026-05-04 12:30 | 24.10958 | 120.70032 | 33085 ft | 567 kts | 39° |
| 2026-05-04 12:31 | 24.16637 | 120.76043 | 33077 ft | 567 kts | 39° |
| 2026-05-04 12:31 | 24.22305 | 120.82049 | 33077 ft | 567 kts | 39° |
| 2026-05-04 12:32 | 24.30796 | 120.91061 | 33082 ft | 567 kts | 39° |
| 2026-05-04 12:33 | 24.36473 | 120.97085 | 33092 ft | 568 kts | 39° |
| 2026-05-04 12:33 | 24.42024 | 121.03298 | 33100 ft | 573 kts | 46° |
| 2026-05-04 12:34 | 24.47055 | 121.10026 | 33104 ft | 574 kts | 47° |
| 2026-05-04 12:34 | 24.52023 | 121.16876 | 33098 ft | 574 kts | 47° |
| 2026-05-04 12:35 | 24.56996 | 121.23781 | 33127 ft | 576 kts | 47° |
| 2026-05-04 12:35 | 24.61977 | 121.30687 | 33139 ft | 576 kts | 47° |
| 2026-05-04 12:36 | 24.66947 | 121.37578 | 33134 ft | 576 kts | 47° |
| 2026-05-04 12:36 | 24.71928 | 121.44488 | 33147 ft | 575 kts | 47° |
| 2026-05-04 12:37 | 24.76894 | 121.51392 | 33154 ft | 576 kts | 47° |
| 2026-05-04 12:37 | 24.81829 | 121.58263 | 33144 ft | 573 kts | 47° |
| 2026-05-04 12:38 | 24.86777 | 121.65144 | 33152 ft | 572 kts | 48° |
| 2026-05-04 12:38 | 24.91748 | 121.72011 | 33170 ft | 572 kts | 46° |
| 2026-05-04 12:39 | 24.96955 | 121.78649 | 33161 ft | 572 kts | 44° |
| 2026-05-04 12:39 | 25.02242 | 121.85240 | 33157 ft | 574 kts | 44° |
| 2026-05-04 12:40 | 25.07451 | 121.91813 | 33158 ft | 574 kts | 45° |
| 2026-05-04 12:40 | 25.12677 | 121.98483 | 33156 ft | 574 kts | 45° |
| 2026-05-04 12:41 | 25.17863 | 122.05180 | 33166 ft | 576 kts | 45° |
| 2026-05-04 12:41 | 25.23056 | 122.11930 | 33157 ft | 576 kts | 45° |
| 2026-05-04 12:42 | 25.28245 | 122.18682 | 33153 ft | 576 kts | 45° |
| 2026-05-04 12:42 | 25.33420 | 122.25419 | 33155 ft | 576 kts | 45° |
| 2026-05-04 12:43 | 25.38626 | 122.32201 | 33157 ft | 577 kts | 45° |
| 2026-05-04 12:43 | 25.43811 | 122.38963 | 33157 ft | 578 kts | 45° |
| 2026-05-04 12:44 | 25.49014 | 122.45762 | 33151 ft | 578 kts | 45° |
| 2026-05-04 12:44 | 25.54221 | 122.52559 | 33181 ft | 578 kts | 45° |
| 2026-05-04 12:45 | 25.59409 | 122.59297 | 33160 ft | 579 kts | 45° |
| 2026-05-04 12:45 | 25.64657 | 122.66115 | 33155 ft | 580 kts | 45° |
| 2026-05-04 12:46 | 25.69860 | 122.72895 | 33161 ft | 580 kts | 45° |
| 2026-05-04 12:46 | 25.75087 | 122.79721 | 33184 ft | 580 kts | 45° |
| 2026-05-04 12:47 | 25.80312 | 122.86552 | 33170 ft | 581 kts | 45° |
| 2026-05-04 12:47 | 25.85556 | 122.93418 | 33162 ft | 581 kts | 45° |
| 2026-05-04 12:48 | 25.90761 | 123.00246 | 33169 ft | 582 kts | 45° |
| 2026-05-04 12:48 | 25.95988 | 123.07110 | 33176 ft | 582 kts | 45° |
| 2026-05-04 12:49 | 26.01218 | 123.13998 | 33173 ft | 582 kts | 45° |
| 2026-05-04 12:49 | 26.06442 | 123.20887 | 33169 ft | 582 kts | 45° |
| 2026-05-04 12:50 | 26.11662 | 123.27782 | 33169 ft | 582 kts | 45° |
| 2026-05-04 12:50 | 26.16859 | 123.34654 | 33171 ft | 583 kts | 45° |
| 2026-05-04 12:51 | 26.22082 | 123.41571 | 33170 ft | 583 kts | 45° |
| 2026-05-04 12:51 | 26.27310 | 123.48505 | 33169 ft | 583 kts | 45° |
| 2026-05-04 12:52 | 26.32518 | 123.55423 | 33183 ft | 584 kts | 45° |
| 2026-05-04 12:52 | 26.37761 | 123.62397 | 33175 ft | 588 kts | 45° |
| 2026-05-04 12:53 | 26.43008 | 123.69390 | 33165 ft | 588 kts | 45° |
| 2026-05-04 12:53 | 26.48222 | 123.76353 | 33176 ft | 586 kts | 45° |
| 2026-05-04 12:54 | 26.53442 | 123.83331 | 33180 ft | 586 kts | 45° |
| 2026-05-04 12:54 | 26.58685 | 123.90347 | 33179 ft | 588 kts | 45° |
| 2026-05-04 12:55 | 26.63894 | 123.97333 | 33174 ft | 587 kts | 45° |
| 2026-05-04 12:55 | 26.69141 | 124.04373 | 33181 ft | 585 kts | 45° |
| 2026-05-04 12:56 | 26.74332 | 124.11316 | 33181 ft | 585 kts | 45° |
| 2026-05-04 12:56 | 26.79564 | 124.18322 | 33181 ft | 585 kts | 45° |
| 2026-05-04 12:57 | 26.84763 | 124.25300 | 33186 ft | 585 kts | 45° |
| 2026-05-04 12:57 | 26.89969 | 124.32301 | 33182 ft | 584 kts | 45° |
| 2026-05-04 12:58 | 26.95179 | 124.39318 | 33181 ft | 585 kts | 45° |
| 2026-05-04 12:58 | 27.00391 | 124.46346 | 33181 ft | 585 kts | 45° |
| 2026-05-04 12:59 | 27.05591 | 124.53366 | 33218 ft | 584 kts | 46° |
| 2026-05-04 12:59 | 27.10783 | 124.60387 | 33183 ft | 587 kts | 46° |
| 2026-05-04 13:00 | 27.15968 | 124.67408 | 33185 ft | 587 kts | 46° |
| 2026-05-04 13:00 | 27.21180 | 124.74479 | 33167 ft | 587 kts | 46° |
| 2026-05-04 13:01 | 27.26382 | 124.81549 | 33192 ft | 587 kts | 46° |
| 2026-05-04 13:01 | 27.31602 | 124.88652 | 33181 ft | 589 kts | 46° |
| 2026-05-04 13:02 | 27.36817 | 124.95762 | 33182 ft | 589 kts | 46° |
| 2026-05-04 13:02 | 27.42030 | 125.02880 | 33209 ft | 588 kts | 46° |
| 2026-05-04 13:03 | 27.47248 | 125.09920 | 33184 ft | 590 kts | 45° |
| 2026-05-04 13:03 | 27.52528 | 125.17021 | 33184 ft | 591 kts | 45° |
| 2026-05-04 13:04 | 27.57790 | 125.24127 | 33184 ft | 591 kts | 45° |
| 2026-05-04 13:04 | 27.63061 | 125.31270 | 33185 ft | 591 kts | 46° |
| 2026-05-04 13:05 | 27.68311 | 125.38400 | 33184 ft | 592 kts | 46° |
| 2026-05-04 13:05 | 27.73544 | 125.45519 | 33184 ft | 592 kts | 46° |
| 2026-05-04 13:06 | 27.78803 | 125.52682 | 33185 ft | 592 kts | 46° |
| 2026-05-04 13:06 | 27.84070 | 125.59869 | 33184 ft | 593 kts | 46° |
| 2026-05-04 13:07 | 27.89316 | 125.67040 | 33184 ft | 593 kts | 46° |
| 2026-05-04 13:07 | 27.94553 | 125.74211 | 33214 ft | 593 kts | 46° |
| 2026-05-04 13:08 | 27.99812 | 125.81422 | 33185 ft | 595 kts | 46° |
| 2026-05-04 13:08 | 28.04188 | 125.87433 | 33185 ft | 595 kts | 46° |
| 2026-05-04 13:09 | 28.10320 | 125.95869 | 33179 ft | 595 kts | 46° |
| 2026-05-04 13:09 | 28.14719 | 126.01931 | 33185 ft | 597 kts | 46° |
| 2026-05-04 13:10 | 28.20858 | 126.10405 | 33181 ft | 599 kts | 46° |
| 2026-05-04 13:10 | 28.25257 | 126.16490 | 33183 ft | 599 kts | 46° |
| 2026-05-04 13:11 | 28.30537 | 126.23806 | 33196 ft | 600 kts | 46° |
| 2026-05-04 13:11 | 28.35842 | 126.31165 | 33181 ft | 600 kts | 46° |
| 2026-05-04 13:12 | 28.41097 | 126.38472 | 33181 ft | 600 kts | 46° |
| 2026-05-04 13:12 | 28.46364 | 126.45804 | 33181 ft | 600 kts | 46° |
| 2026-05-04 13:13 | 28.51642 | 126.53166 | 33180 ft | 599 kts | 46° |
| 2026-05-04 13:13 | 28.56898 | 126.60511 | 33181 ft | 598 kts | 46° |
| 2026-05-04 13:14 | 28.62151 | 126.67863 | 33188 ft | 598 kts | 46° |
| 2026-05-04 13:14 | 28.67385 | 126.75198 | 33162 ft | 602 kts | 46° |
| 2026-05-04 13:15 | 28.72666 | 126.82616 | 33187 ft | 601 kts | 47° |
| 2026-05-04 13:15 | 28.77924 | 126.90018 | 33197 ft | 600 kts | 47° |
| 2026-05-04 13:16 | 28.83169 | 126.97409 | 33182 ft | 603 kts | 47° |
| 2026-05-04 13:16 | 28.88444 | 127.04858 | 33171 ft | 601 kts | 47° |
| 2026-05-04 13:17 | 28.93680 | 127.12267 | 33221 ft | 601 kts | 47° |
| 2026-05-04 13:17 | 28.98936 | 127.19713 | 33183 ft | 604 kts | 47° |
| 2026-05-04 13:18 | 29.04211 | 127.27201 | 33165 ft | 604 kts | 47° |
| 2026-05-04 13:18 | 29.09462 | 127.34672 | 33173 ft | 603 kts | 47° |
| 2026-05-04 13:19 | 29.14761 | 127.42223 | 33178 ft | 605 kts | 47° |
| 2026-05-04 13:19 | 29.19988 | 127.49683 | 33160 ft | 605 kts | 47° |
| 2026-05-04 13:20 | 29.25263 | 127.57228 | 33180 ft | 604 kts | 47° |
| 2026-05-04 13:20 | 29.30489 | 127.64714 | 33173 ft | 606 kts | 47° |
| 2026-05-04 13:21 | 29.35765 | 127.72285 | 33141 ft | 607 kts | 47° |
| 2026-05-04 13:21 | 29.41032 | 127.79861 | 33213 ft | 605 kts | 47° |
| 2026-05-04 13:22 | 29.46260 | 127.87394 | 33168 ft | 607 kts | 47° |
| 2026-05-04 13:22 | 29.51513 | 127.94973 | 33170 ft | 607 kts | 47° |
| 2026-05-04 13:23 | 29.56760 | 128.02553 | 33208 ft | 606 kts | 47° |
| 2026-05-04 13:23 | 29.62001 | 128.10136 | 33169 ft | 607 kts | 47° |
| 2026-05-04 13:24 | 29.67250 | 128.17746 | 33166 ft | 607 kts | 47° |
| 2026-05-04 13:24 | 29.72508 | 128.25384 | 33176 ft | 607 kts | 47° |
| 2026-05-04 13:25 | 29.80325 | 128.36765 | 33169 ft | 607 kts | 47° |
| 2026-05-04 13:25 | 29.85560 | 128.44404 | 33168 ft | 607 kts | 47° |
| 2026-05-04 13:26 | 29.90799 | 128.52063 | 33167 ft | 607 kts | 47° |
| 2026-05-04 13:26 | 29.96017 | 128.59707 | 33168 ft | 607 kts | 47° |
| 2026-05-04 13:27 | 30.01235 | 128.67366 | 33154 ft | 607 kts | 47° |
| 2026-05-04 13:27 | 30.06463 | 128.75054 | 33165 ft | 608 kts | 47° |
| 2026-05-04 13:28 | 30.11668 | 128.82722 | 33166 ft | 608 kts | 47° |
| 2026-05-04 13:28 | 30.16888 | 128.90426 | 33183 ft | 608 kts | 48° |
| 2026-05-04 13:29 | 30.22058 | 128.98072 | 33164 ft | 607 kts | 48° |
| 2026-05-04 13:29 | 30.27275 | 129.05804 | 33164 ft | 607 kts | 48° |
| 2026-05-04 13:30 | 30.32469 | 129.13516 | 33156 ft | 607 kts | 48° |
| 2026-05-04 13:30 | 30.37640 | 129.21207 | 33159 ft | 606 kts | 48° |
| 2026-05-04 13:31 | 30.42798 | 129.28895 | 33159 ft | 607 kts | 48° |
| 2026-05-04 13:31 | 30.47979 | 129.36633 | 33142 ft | 605 kts | 48° |
| 2026-05-04 13:32 | 30.53143 | 129.44360 | 33157 ft | 605 kts | 48° |
| 2026-05-04 13:32 | 30.58302 | 129.52093 | 33157 ft | 606 kts | 48° |
| 2026-05-04 13:33 | 30.63433 | 129.59801 | 33144 ft | 602 kts | 49° |
| 2026-05-04 13:33 | 30.68552 | 129.67507 | 33155 ft | 602 kts | 49° |
| 2026-05-04 13:34 | 30.73665 | 129.75216 | 33184 ft | 602 kts | 49° |
| 2026-05-04 13:34 | 30.78764 | 129.82921 | 33144 ft | 600 kts | 49° |
| 2026-05-04 13:35 | 30.86116 | 129.94695 | 33154 ft | 603 kts | 54° |
| 2026-05-04 13:36 | 30.90597 | 130.02975 | 33165 ft | 603 kts | 56° |
| 2026-05-04 13:36 | 30.94983 | 130.11270 | 33152 ft | 602 kts | 56° |
| 2026-05-04 13:37 | 30.99364 | 130.19579 | 33157 ft | 602 kts | 56° |
| 2026-05-04 13:37 | 31.03740 | 130.27866 | 33155 ft | 602 kts | 56° |
| 2026-05-04 13:38 | 31.08133 | 130.36190 | 33147 ft | 602 kts | 56° |
| 2026-05-04 13:38 | 31.12494 | 130.44468 | 33194 ft | 602 kts | 57° |
| 2026-05-04 13:39 | 31.16862 | 130.52778 | 33151 ft | 601 kts | 57° |
| 2026-05-04 13:39 | 31.21230 | 130.61111 | 33147 ft | 600 kts | 57° |
| 2026-05-04 13:40 | 31.25581 | 130.69425 | 33171 ft | 600 kts | 57° |
| 2026-05-04 13:40 | 31.29936 | 130.77765 | 33148 ft | 601 kts | 57° |
| 2026-05-04 13:41 | 31.34260 | 130.86066 | 33148 ft | 601 kts | 57° |
| 2026-05-04 13:41 | 31.38600 | 130.94420 | 33143 ft | 601 kts | 57° |
| 2026-05-04 13:42 | 31.45121 | 131.06995 | 33148 ft | 602 kts | 57° |
| 2026-05-04 13:42 | 31.49439 | 131.15344 | 33178 ft | 602 kts | 57° |
| 2026-05-04 13:43 | 31.53773 | 131.23747 | 33149 ft | 603 kts | 57° |
| 2026-05-04 13:43 | 31.58124 | 131.32197 | 33142 ft | 604 kts | 57° |
| 2026-05-04 13:44 | 31.62468 | 131.40650 | 33152 ft | 604 kts | 58° |
| 2026-05-04 13:44 | 31.66783 | 131.49086 | 33118 ft | 604 kts | 58° |
| 2026-05-04 13:45 | 31.71111 | 131.57563 | 33085 ft | 604 kts | 58° |
| 2026-05-04 13:45 | 31.75419 | 131.66012 | 33117 ft | 603 kts | 58° |
| 2026-05-04 13:46 | 31.79706 | 131.74440 | 33118 ft | 603 kts | 58° |
| 2026-05-04 13:46 | 31.83992 | 131.82888 | 33172 ft | 602 kts | 58° |
| 2026-05-04 13:47 | 31.88272 | 131.91339 | 33126 ft | 602 kts | 59° |
| 2026-05-04 13:47 | 31.92574 | 131.99856 | 33110 ft | 602 kts | 59° |
| 2026-05-04 13:48 | 31.96814 | 132.08271 | 33130 ft | 600 kts | 59° |
| 2026-05-04 13:48 | 32.01090 | 132.16773 | 33125 ft | 603 kts | 59° |
| 2026-05-04 13:49 | 32.05329 | 132.25221 | 33120 ft | 601 kts | 59° |
| 2026-05-04 13:49 | 32.09605 | 132.33763 | 33121 ft | 603 kts | 59° |
| 2026-05-04 13:50 | 32.13856 | 132.42325 | 33101 ft | 606 kts | 61° |
| 2026-05-04 13:50 | 32.17656 | 132.51103 | 33161 ft | 604 kts | 65° |
| 2026-05-04 13:51 | 32.21293 | 132.60076 | 33120 ft | 607 kts | 65° |
| 2026-05-04 13:51 | 32.24999 | 132.69061 | 33125 ft | 608 kts | 65° |
| 2026-05-04 13:52 | 32.30637 | 132.82459 | 33117 ft | 609 kts | 64° |
| 2026-05-04 13:53 | 32.34415 | 132.91428 | 33120 ft | 609 kts | 64° |
| 2026-05-04 13:53 | 32.38198 | 133.00449 | 33157 ft | 609 kts | 64° |
| 2026-05-04 13:54 | 32.43822 | 133.13922 | 33116 ft | 610 kts | 64° |
| 2026-05-04 13:55 | 32.49435 | 133.27418 | 33111 ft | 610 kts | 64° |
| 2026-05-04 13:55 | 32.55042 | 133.40949 | 33114 ft | 609 kts | 65° |
| 2026-05-04 13:56 | 32.58766 | 133.49977 | 33115 ft | 610 kts | 65° |
| 2026-05-04 13:57 | 32.64366 | 133.63570 | 33079 ft | 611 kts | 65° |
| 2026-05-04 13:58 | 32.71798 | 133.81690 | 33100 ft | 612 kts | 65° |
| 2026-05-04 13:58 | 32.77376 | 133.95357 | 33118 ft | 614 kts | 65° |
| 2026-05-04 13:59 | 32.80463 | 134.02945 | 33067 ft | 613 kts | 65° |
| 2026-05-04 14:00 | 32.85191 | 134.18888 | 33118 ft | 613 kts | 76° |
| 2026-05-04 14:00 | 32.88388 | 134.31829 | 33096 ft | 613 kts | 76° |
| 2026-05-04 14:01 | 32.90775 | 134.41576 | 33093 ft | 614 kts | 76° |
| 2026-05-04 14:02 | 32.94367 | 134.56151 | 33097 ft | 614 kts | 76° |
| 2026-05-04 14:02 | 32.96778 | 134.65946 | 33083 ft | 614 kts | 77° |
| 2026-05-04 14:03 | 32.99160 | 134.75669 | 33106 ft | 613 kts | 77° |
| 2026-05-04 14:03 | 33.01541 | 134.85409 | 33089 ft | 613 kts | 77° |
| 2026-05-04 14:04 | 33.05090 | 135.00032 | 33098 ft | 613 kts | 77° |
| 2026-05-04 14:04 | 33.07444 | 135.09778 | 33085 ft | 613 kts | 77° |
| 2026-05-04 14:05 | 33.10863 | 135.19151 | 33085 ft | 617 kts | 54° |
| 2026-05-04 14:05 | 33.13562 | 135.23073 | 33086 ft | 612 kts | 40° |
| 2026-05-04 14:06 | 33.20055 | 135.29554 | 33089 ft | 607 kts | 32° |
| 2026-05-04 14:06 | 33.26782 | 135.35559 | 33080 ft | 606 kts | 31° |
| 2026-05-04 14:07 | 33.33577 | 135.41563 | 33071 ft | 607 kts | 32° |
| 2026-05-04 14:07 | 33.40342 | 135.47656 | 33058 ft | 608 kts | 32° |
| 2026-05-04 14:08 | 33.47084 | 135.53788 | 33051 ft | 608 kts | 32° |
| 2026-05-04 14:08 | 33.53803 | 135.59917 | 33043 ft | 608 kts | 32° |
| 2026-05-04 14:09 | 33.63919 | 135.69151 | 33044 ft | 609 kts | 32° |
| 2026-05-04 14:10 | 33.74029 | 135.78339 | 33066 ft | 608 kts | 32° |
| 2026-05-04 14:10 | 33.80774 | 135.84433 | 33072 ft | 611 kts | 31° |
| 2026-05-04 14:11 | 33.87617 | 135.90591 | 33059 ft | 611 kts | 31° |
| 2026-05-04 14:11 | 33.97756 | 135.99834 | 33072 ft | 614 kts | 31° |
| 2026-05-04 14:12 | 34.04552 | 136.06028 | 33058 ft | 611 kts | 31° |
| 2026-05-04 14:13 | 34.14716 | 136.15275 | 33056 ft | 609 kts | 31° |
| 2026-05-04 14:13 | 34.21476 | 136.21480 | 33061 ft | 613 kts | 32° |
| 2026-05-04 14:14 | 34.28300 | 136.27745 | 33047 ft | 614 kts | 32° |
| 2026-05-04 14:14 | 34.38477 | 136.36993 | 33068 ft | 611 kts | 31° |
| 2026-05-04 14:15 | 34.52098 | 136.49389 | 33029 ft | 611 kts | 30° |
| 2026-05-04 14:16 | 34.62291 | 136.58652 | 33021 ft | 612 kts | 31° |
| 2026-05-04 14:17 | 34.72545 | 136.68059 | 33022 ft | 614 kts | 31° |
| 2026-05-04 14:18 | 34.82730 | 136.77461 | 33017 ft | 613 kts | 31° |
| 2026-05-04 14:19 | 34.96512 | 136.89593 | 32990 ft | 610 kts | 27° |
| 2026-05-04 14:19 | 35.03502 | 136.95417 | 32990 ft | 611 kts | 28° |
| 2026-05-04 14:20 | 35.10490 | 137.01330 | 32988 ft | 611 kts | 28° |
| 2026-05-04 14:20 | 35.17444 | 137.07287 | 32986 ft | 610 kts | 28° |
| 2026-05-04 14:21 | 35.27841 | 137.16231 | 32985 ft | 610 kts | 28° |
| 2026-05-04 14:21 | 35.34763 | 137.22270 | 32978 ft | 614 kts | 34° |
| 2026-05-04 14:22 | 35.37909 | 137.25916 | 33001 ft | 622 kts | 46° |
| 2026-05-04 14:22 | 35.40427 | 137.30189 | 32990 ft | 624 kts | 60° |
| 2026-05-04 14:22 | 35.44393 | 137.39633 | 32975 ft | 625 kts | 66° |
| 2026-05-04 14:23 | 35.49786 | 137.54213 | 32981 ft | 625 kts | 66° |
| 2026-05-04 14:24 | 35.53411 | 137.63913 | 32968 ft | 625 kts | 66° |
| 2026-05-04 14:24 | 35.57084 | 137.73612 | 32979 ft | 626 kts | 66° |
| 2026-05-04 14:25 | 35.60758 | 137.83311 | 32977 ft | 625 kts | 67° |
| 2026-05-04 14:25 | 35.66017 | 137.97907 | 32972 ft | 623 kts | 68° |
| 2026-05-04 14:26 | 35.69557 | 138.07662 | 32959 ft | 624 kts | 66° |
| 2026-05-04 14:26 | 35.73291 | 138.17260 | 32917 ft | 625 kts | 65° |
| 2026-05-04 14:27 | 35.77066 | 138.26890 | 32936 ft | 623 kts | 66° |
| 2026-05-04 14:27 | 35.80791 | 138.36514 | 32929 ft | 621 kts | 66° |
| 2026-05-04 14:28 | 35.84488 | 138.46172 | 32919 ft | 624 kts | 66° |
| 2026-05-04 14:28 | 35.88176 | 138.55855 | 32918 ft | 624 kts | 66° |
| 2026-05-04 14:29 | 35.95519 | 138.75224 | 32905 ft | 624 kts | 66° |
| 2026-05-04 14:30 | 35.99175 | 138.84970 | 32919 ft | 626 kts | 67° |
| 2026-05-04 14:31 | 36.04653 | 138.99571 | 32898 ft | 626 kts | 67° |
| 2026-05-04 14:32 | 36.11971 | 139.19146 | 32899 ft | 628 kts | 67° |
| 2026-05-04 14:32 | 36.15649 | 139.28929 | 32882 ft | 629 kts | 63° |
| 2026-05-04 14:33 | 36.20436 | 139.38010 | 32895 ft | 629 kts | 54° |
| 2026-05-04 14:33 | 36.25541 | 139.46802 | 32892 ft | 630 kts | 53° |
| 2026-05-04 14:34 | 36.30728 | 139.55553 | 32889 ft | 630 kts | 53° |
| 2026-05-04 14:34 | 36.35901 | 139.64340 | 32885 ft | 631 kts | 53° |
| 2026-05-04 14:35 | 36.41039 | 139.73152 | 32875 ft | 631 kts | 53° |
| 2026-05-04 14:35 | 36.46172 | 139.81923 | 32871 ft | 631 kts | 53° |
| 2026-05-04 14:36 | 36.51316 | 139.90787 | 32864 ft | 632 kts | 55° |
| 2026-05-04 14:36 | 36.56149 | 139.99905 | 32861 ft | 632 kts | 57° |
| 2026-05-04 14:37 | 36.60899 | 140.09143 | 32860 ft | 633 kts | 57° |
| 2026-05-04 14:37 | 36.65688 | 140.18348 | 32861 ft | 633 kts | 57° |
| 2026-05-04 14:38 | 36.70521 | 140.27533 | 32863 ft | 634 kts | 57° |
| 2026-05-04 14:38 | 36.75038 | 140.36951 | 32881 ft | 632 kts | 66° |
| 2026-05-04 14:39 | 36.78736 | 140.46842 | 32887 ft | 632 kts | 69° |
| 2026-05-04 14:39 | 36.82284 | 140.56887 | 32891 ft | 631 kts | 69° |
| 2026-05-04 14:40 | 36.87527 | 140.71916 | 32891 ft | 631 kts | 69° |
| 2026-05-04 14:40 | 36.91054 | 140.81961 | 32878 ft | 631 kts | 69° |
| 2026-05-04 14:41 | 36.94590 | 140.92034 | 32876 ft | 632 kts | 69° |
| 2026-05-04 14:42 | 37.01611 | 141.12180 | 32864 ft | 634 kts | 70° |
| 2026-05-04 14:42 | 37.05122 | 141.22299 | 32884 ft | 634 kts | 70° |
| 2026-05-04 14:43 | 37.08634 | 141.32462 | 32861 ft | 634 kts | 70° |
| 2026-05-04 14:43 | 37.12134 | 141.42625 | 32876 ft | 634 kts | 70° |
| 2026-05-04 14:44 | 37.15602 | 141.52729 | 32879 ft | 634 kts | 70° |
| 2026-05-04 14:44 | 37.19082 | 141.62906 | 32860 ft | 634 kts | 70° |
| 2026-05-04 14:45 | 37.22549 | 141.73074 | 32864 ft | 634 kts | 70° |
| 2026-05-04 14:45 | 37.26007 | 141.83252 | 32865 ft | 634 kts | 71° |
| 2026-05-04 14:46 | 37.29459 | 141.93448 | 32861 ft | 633 kts | 71° |
| 2026-05-04 14:46 | 37.32894 | 142.03631 | 32859 ft | 633 kts | 71° |
| 2026-05-04 14:47 | 37.36323 | 142.13830 | 32851 ft | 632 kts | 71° |
| 2026-05-04 14:47 | 37.39719 | 142.23966 | 32851 ft | 632 kts | 71° |
| 2026-05-04 14:48 | 37.43132 | 142.34189 | 32847 ft | 632 kts | 71° |
| 2026-05-04 14:48 | 37.46535 | 142.44415 | 32844 ft | 631 kts | 71° |
| 2026-05-04 14:49 | 37.49352 | 142.52908 | 32825 ft | 631 kts | 71° |
| 2026-05-04 14:49 | 37.53273 | 142.64769 | 32835 ft | 630 kts | 71° |
| 2026-05-04 14:50 | 37.56064 | 142.73244 | 32834 ft | 630 kts | 71° |
| 2026-05-04 14:50 | 37.59377 | 142.83488 | 32828 ft | 630 kts | 72° |
| 2026-05-04 14:51 | 37.62644 | 142.93760 | 32823 ft | 630 kts | 72° |
| 2026-05-04 14:51 | 37.65886 | 143.03972 | 32820 ft | 630 kts | 72° |
| 2026-05-04 14:52 | 37.69145 | 143.14237 | 32818 ft | 630 kts | 72° |
| 2026-05-04 14:52 | 37.72399 | 143.24524 | 32815 ft | 630 kts | 72° |
| 2026-05-04 14:53 | 37.75646 | 143.34811 | 32818 ft | 631 kts | 72° |
| 2026-05-04 14:53 | 37.78876 | 143.45082 | 32810 ft | 631 kts | 72° |
| 2026-05-04 14:54 | 37.83117 | 143.54819 | 32803 ft | 636 kts | 50° |
| 2026-05-04 14:54 | 37.89388 | 143.62693 | 32804 ft | 635 kts | 39° |
| 2026-05-04 14:55 | 37.96063 | 143.70053 | 32793 ft | 636 kts | 37° |
| 2026-05-04 14:55 | 38.02798 | 143.77315 | 32793 ft | 636 kts | 38° |
| 2026-05-04 14:56 | 38.09520 | 143.84676 | 32790 ft | 637 kts | 38° |
| 2026-05-04 14:56 | 38.16193 | 143.92085 | 32791 ft | 638 kts | 38° |
| 2026-05-04 14:57 | 38.22826 | 143.99486 | 32809 ft | 638 kts | 39° |
| 2026-05-04 14:57 | 38.29508 | 144.06952 | 32780 ft | 640 kts | 39° |
| 2026-05-04 14:58 | 38.36222 | 144.14465 | 32770 ft | 640 kts | 39° |
| 2026-05-04 14:58 | 38.42894 | 144.21948 | 32770 ft | 641 kts | 39° |
| 2026-05-04 14:59 | 38.49592 | 144.29479 | 32758 ft | 641 kts | 39° |
| 2026-05-04 15:00 | 38.59605 | 144.40779 | 32755 ft | 642 kts | 39° |
| 2026-05-04 15:00 | 38.66270 | 144.48323 | 32748 ft | 643 kts | 39° |
| 2026-05-04 15:01 | 38.76309 | 144.59754 | 32730 ft | 643 kts | 39° |
| 2026-05-04 15:01 | 38.82980 | 144.67394 | 32724 ft | 643 kts | 39° |
| 2026-05-04 15:02 | 38.89632 | 144.75030 | 32719 ft | 644 kts | 39° |
| 2026-05-04 15:02 | 38.96309 | 144.82712 | 32702 ft | 643 kts | 40° |
| 2026-05-04 15:03 | 39.02945 | 144.90367 | 32697 ft | 643 kts | 40° |
| 2026-05-04 15:03 | 39.09602 | 144.98065 | 32689 ft | 643 kts | 40° |
| 2026-05-04 15:04 | 39.16257 | 145.05781 | 32730 ft | 643 kts | 40° |
| 2026-05-04 15:04 | 39.22932 | 145.13544 | 32678 ft | 644 kts | 40° |
| 2026-05-04 15:05 | 39.29582 | 145.21296 | 32675 ft | 645 kts | 40° |
| 2026-05-04 15:05 | 39.36243 | 145.29082 | 32656 ft | 645 kts | 40° |
| 2026-05-04 15:06 | 39.42847 | 145.36822 | 32665 ft | 644 kts | 40° |
| 2026-05-04 15:07 | 39.52795 | 145.48522 | 32654 ft | 646 kts | 40° |
| 2026-05-04 15:07 | 39.59444 | 145.56367 | 32648 ft | 646 kts | 40° |
| 2026-05-04 15:08 | 39.66081 | 145.64221 | 32646 ft | 646 kts | 40° |
| 2026-05-04 15:08 | 39.72714 | 145.72090 | 32639 ft | 646 kts | 41° |
| 2026-05-04 15:09 | 39.79361 | 145.79998 | 32636 ft | 646 kts | 41° |
| 2026-05-04 15:09 | 39.85999 | 145.87916 | 32625 ft | 646 kts | 41° |
| 2026-05-04 15:10 | 39.95868 | 145.99730 | 32633 ft | 646 kts | 41° |
| 2026-05-04 15:11 | 40.05802 | 146.11670 | 32622 ft | 645 kts | 41° |
| 2026-05-04 15:11 | 40.12382 | 146.19607 | 32615 ft | 645 kts | 41° |
| 2026-05-04 15:12 | 40.18980 | 146.27587 | 32609 ft | 646 kts | 41° |
| 2026-05-04 15:12 | 40.25560 | 146.35567 | 32600 ft | 646 kts | 41° |
| 2026-05-04 15:13 | 40.32113 | 146.43536 | 32590 ft | 646 kts | 41° |
| 2026-05-04 15:13 | 40.38686 | 146.51554 | 32594 ft | 645 kts | 42° |
| 2026-05-04 15:14 | 40.45270 | 146.59607 | 32582 ft | 645 kts | 42° |
| 2026-05-04 15:14 | 40.51840 | 146.67664 | 32575 ft | 647 kts | 42° |
| 2026-05-04 15:15 | 40.58401 | 146.75733 | 32537 ft | 647 kts | 42° |
| 2026-05-04 15:15 | 40.64971 | 146.83836 | 32563 ft | 646 kts | 42° |
| 2026-05-04 15:16 | 40.74794 | 146.95995 | 32570 ft | 646 kts | 42° |
| 2026-05-04 15:17 | 40.84594 | 147.08177 | 32550 ft | 647 kts | 42° |
| 2026-05-04 15:17 | 40.94418 | 147.20439 | 32544 ft | 647 kts | 43° |
| 2026-05-04 15:18 | 41.00966 | 147.28642 | 32539 ft | 647 kts | 43° |
| 2026-05-04 15:19 | 41.10726 | 147.40915 | 32539 ft | 647 kts | 43° |
| 2026-05-04 15:19 | 41.20508 | 147.53266 | 32502 ft | 647 kts | 43° |
| 2026-05-04 15:20 | 41.27020 | 147.61520 | 32528 ft | 647 kts | 43° |
| 2026-05-04 15:20 | 41.33548 | 147.69816 | 32525 ft | 646 kts | 43° |
| 2026-05-04 15:21 | 41.40053 | 147.78109 | 32549 ft | 646 kts | 43° |
| 2026-05-04 15:22 | 41.49757 | 147.90524 | 32521 ft | 649 kts | 43° |
| 2026-05-04 15:22 | 41.59540 | 148.03095 | 32512 ft | 649 kts | 43° |
| 2026-05-04 15:23 | 41.66033 | 148.11471 | 32506 ft | 649 kts | 44° |
| 2026-05-04 15:23 | 41.72493 | 148.19829 | 32534 ft | 649 kts | 44° |
| 2026-05-04 15:24 | 41.85387 | 148.36793 | 32496 ft | 650 kts | 45° |
| 2026-05-04 15:25 | 41.91810 | 148.45355 | 32495 ft | 650 kts | 45° |
| 2026-05-04 15:26 | 42.01456 | 148.58220 | 32490 ft | 650 kts | 45° |
| 2026-05-04 15:26 | 42.11051 | 148.71061 | 32487 ft | 651 kts | 45° |
| 2026-05-04 15:27 | 42.20655 | 148.83973 | 32481 ft | 651 kts | 45° |
| 2026-05-04 15:28 | 42.30282 | 148.96976 | 32450 ft | 651 kts | 45° |
| 2026-05-04 15:29 | 42.39849 | 149.09959 | 32510 ft | 649 kts | 45° |
| 2026-05-04 15:30 | 42.62097 | 149.40380 | 32437 ft | 649 kts | 45° |
| 2026-05-04 15:31 | 42.71576 | 149.53442 | 32464 ft | 647 kts | 45° |
| 2026-05-04 15:32 | 42.87410 | 149.75398 | 32457 ft | 649 kts | 46° |
| 2026-05-04 15:34 | 43.03116 | 149.97341 | 32453 ft | 647 kts | 46° |
| 2026-05-04 15:34 | 43.12520 | 150.10564 | 32439 ft | 646 kts | 46° |
| 2026-05-04 15:35 | 43.21893 | 150.23806 | 32445 ft | 644 kts | 46° |
| 2026-05-04 15:36 | 43.31227 | 150.37053 | 32437 ft | 644 kts | 46° |
| 2026-05-04 15:36 | 43.37432 | 150.45894 | 32434 ft | 644 kts | 46° |
| 2026-05-04 15:37 | 43.42615 | 150.53302 | 32469 ft | 644 kts | 46° |
| 2026-05-04 15:37 | 43.48817 | 150.62192 | 32428 ft | 646 kts | 46° |
| 2026-05-04 15:38 | 43.55049 | 150.71150 | 32423 ft | 646 kts | 46° |
| 2026-05-04 15:38 | 43.61269 | 150.80121 | 32416 ft | 645 kts | 46° |
| 2026-05-04 15:39 | 43.67456 | 150.89073 | 32420 ft | 643 kts | 46° |
| 2026-05-04 15:40 | 43.76681 | 151.02476 | 32449 ft | 643 kts | 46° |
| 2026-05-04 15:40 | 43.82845 | 151.11468 | 32408 ft | 643 kts | 46° |
| 2026-05-04 15:41 | 43.88999 | 151.20471 | 32405 ft | 644 kts | 46° |
| 2026-05-04 15:41 | 43.95122 | 151.29460 | 32400 ft | 642 kts | 46° |
| 2026-05-04 15:42 | 44.01262 | 151.38501 | 32396 ft | 641 kts | 46° |
| 2026-05-04 15:42 | 44.07377 | 151.47533 | 32363 ft | 641 kts | 46° |
| 2026-05-04 15:43 | 44.13469 | 151.56566 | 32418 ft | 641 kts | 47° |
| 2026-05-04 15:43 | 44.19582 | 151.65658 | 32386 ft | 643 kts | 47° |
| 2026-05-04 15:44 | 44.25685 | 151.74761 | 32375 ft | 643 kts | 47° |
| 2026-05-04 15:44 | 44.31745 | 151.83832 | 32379 ft | 641 kts | 47° |
| 2026-05-04 15:45 | 44.37850 | 151.92997 | 32374 ft | 641 kts | 47° |
| 2026-05-04 15:45 | 44.43885 | 152.02090 | 32369 ft | 641 kts | 47° |
| 2026-05-04 15:46 | 44.49935 | 152.11234 | 32376 ft | 640 kts | 47° |
| 2026-05-04 15:46 | 44.55996 | 152.20425 | 32361 ft | 642 kts | 47° |
| 2026-05-04 15:47 | 44.62064 | 152.29658 | 32359 ft | 641 kts | 47° |
| 2026-05-04 15:47 | 44.68070 | 152.38824 | 32359 ft | 640 kts | 47° |
| 2026-05-04 15:48 | 44.74114 | 152.48080 | 32328 ft | 640 kts | 47° |
| 2026-05-04 15:48 | 44.83109 | 152.61913 | 32416 ft | 639 kts | 47° |
| 2026-05-04 15:49 | 44.89083 | 152.71141 | 32342 ft | 641 kts | 47° |
| 2026-05-04 15:49 | 44.95096 | 152.80456 | 32343 ft | 642 kts | 47° |
| 2026-05-04 15:50 | 45.01118 | 152.89818 | 32337 ft | 642 kts | 47° |
| 2026-05-04 15:50 | 45.07105 | 152.99157 | 32307 ft | 641 kts | 47° |
| 2026-05-04 15:51 | 45.13074 | 153.08503 | 32329 ft | 639 kts | 47° |
| 2026-05-04 15:51 | 45.19001 | 153.17810 | 32364 ft | 639 kts | 48° |
| 2026-05-04 15:52 | 45.24948 | 153.27182 | 32320 ft | 640 kts | 47° |
| 2026-05-04 15:52 | 45.30890 | 153.36577 | 32325 ft | 638 kts | 47° |
| 2026-05-04 15:53 | 45.36821 | 153.45984 | 32326 ft | 638 kts | 47° |
| 2026-05-04 15:53 | 45.42706 | 153.55353 | 32323 ft | 637 kts | 47° |
| 2026-05-04 15:54 | 45.48582 | 153.64738 | 32328 ft | 635 kts | 47° |
| 2026-05-04 15:54 | 45.54466 | 153.74170 | 32384 ft | 635 kts | 48° |
| 2026-05-04 15:55 | 45.60315 | 153.83670 | 32324 ft | 635 kts | 48° |
| 2026-05-04 15:55 | 45.66077 | 153.93106 | 32326 ft | 633 kts | 48° |
| 2026-05-04 15:56 | 45.71870 | 154.02610 | 32321 ft | 633 kts | 48° |
| 2026-05-04 15:56 | 45.77665 | 154.12142 | 32319 ft | 630 kts | 48° |
| 2026-05-04 15:57 | 45.83372 | 154.21551 | 32319 ft | 629 kts | 48° |
| 2026-05-04 15:57 | 45.89115 | 154.31053 | 32327 ft | 629 kts | 48° |
| 2026-05-04 15:58 | 45.94832 | 154.40553 | 32328 ft | 627 kts | 48° |
| 2026-05-04 15:58 | 46.00529 | 154.50046 | 32331 ft | 627 kts | 48° |
| 2026-05-04 15:59 | 46.06198 | 154.59523 | 32331 ft | 627 kts | 48° |
| 2026-05-04 15:59 | 46.11883 | 154.69065 | 32333 ft | 625 kts | 48° |
| 2026-05-04 16:00 | 46.17503 | 154.78527 | 32334 ft | 624 kts | 48° |
| 2026-05-04 16:00 | 46.23155 | 154.88076 | 32321 ft | 624 kts | 48° |
| 2026-05-04 16:01 | 46.28771 | 154.97601 | 32361 ft | 622 kts | 48° |
| 2026-05-04 16:01 | 46.34357 | 155.07103 | 32342 ft | 622 kts | 49° |
| 2026-05-04 16:02 | 46.39973 | 155.16690 | 32340 ft | 622 kts | 49° |
| 2026-05-04 16:03 | 46.48329 | 155.31020 | 32347 ft | 619 kts | 49° |
| 2026-05-04 16:03 | 46.53862 | 155.40549 | 32358 ft | 619 kts | 49° |
| 2026-05-04 16:04 | 46.59407 | 155.50131 | 32355 ft | 619 kts | 49° |
| 2026-05-04 16:04 | 46.67696 | 155.64520 | 32375 ft | 619 kts | 49° |
| 2026-05-04 16:05 | 46.73235 | 155.74176 | 32373 ft | 619 kts | 49° |
| 2026-05-04 16:06 | 46.81499 | 155.88647 | 32399 ft | 619 kts | 49° |
| 2026-05-04 16:07 | 46.92484 | 156.08003 | 32401 ft | 619 kts | 49° |
| 2026-05-04 16:08 | 47.03431 | 156.27427 | 32431 ft | 618 kts | 49° |
| 2026-05-04 16:09 | 47.17068 | 156.51821 | 32455 ft | 617 kts | 49° |
| 2026-05-04 16:10 | 47.27890 | 156.71336 | 32489 ft | 615 kts | 48° |
| 2026-05-04 16:11 | 47.38689 | 156.90944 | 32503 ft | 614 kts | 49° |
| 2026-05-04 16:12 | 47.54788 | 157.20446 | 32537 ft | 615 kts | 49° |
| 2026-05-04 16:13 | 47.65478 | 157.40214 | 32548 ft | 614 kts | 48° |
| 2026-05-04 16:14 | 47.76137 | 157.60068 | 32570 ft | 615 kts | 48° |
| 2026-05-04 16:16 | 47.89365 | 157.84907 | 32603 ft | 613 kts | 49° |
| 2026-05-04 16:17 | 48.02514 | 158.09831 | 32631 ft | 609 kts | 48° |
| 2026-05-04 16:18 | 48.12970 | 158.29817 | 32643 ft | 607 kts | 47° |
| 2026-05-04 16:19 | 48.25889 | 158.54710 | 32653 ft | 606 kts | 48° |
| 2026-05-04 16:20 | 48.38806 | 158.79834 | 32678 ft | 607 kts | 48° |
| 2026-05-04 16:22 | 48.51586 | 159.04926 | 32702 ft | 605 kts | 48° |
| 2026-05-04 16:23 | 48.66868 | 159.35235 | 32715 ft | 602 kts | 48° |
| 2026-05-04 16:25 | 48.81153 | 159.63885 | 32741 ft | 599 kts | 48° |
| 2026-05-04 16:26 | 48.99466 | 160.01055 | 32770 ft | 598 kts | 48° |
| 2026-05-04 16:28 | 49.10776 | 160.25177 | 32789 ft | 599 kts | 50° |
| 2026-05-04 16:29 | 49.27559 | 160.61521 | 32804 ft | 597 kts | 49° |
| 2026-05-04 16:31 | 49.39450 | 160.87532 | 32819 ft | 596 kts | 50° |
| 2026-05-04 16:32 | 49.53609 | 161.18869 | 32835 ft | 594 kts | 50° |
| 2026-05-04 16:33 | 49.62906 | 161.39845 | 32848 ft | 593 kts | 50° |
| 2026-05-04 16:34 | 49.69849 | 161.55612 | 32846 ft | 593 kts | 50° |
| 2026-05-04 16:35 | 49.83745 | 161.87430 | 32849 ft | 596 kts | 51° |
| 2026-05-04 16:36 | 49.90663 | 162.03419 | 32858 ft | 596 kts | 51° |
| 2026-05-04 16:37 | 49.97558 | 162.19449 | 32878 ft | 596 kts | 51° |
| 2026-05-04 16:38 | 50.06767 | 162.41011 | 32878 ft | 598 kts | 51° |
| 2026-05-04 16:39 | 50.18140 | 162.67890 | 32884 ft | 595 kts | 51° |
| 2026-05-04 16:40 | 50.27180 | 162.89449 | 32893 ft | 593 kts | 51° |
| 2026-05-04 16:41 | 50.38413 | 163.16489 | 32904 ft | 592 kts | 50° |
| 2026-05-04 16:43 | 50.49554 | 163.43585 | 32906 ft | 590 kts | 51° |
| 2026-05-04 16:43 | 50.56200 | 163.59885 | 32910 ft | 589 kts | 50° |
| 2026-05-04 16:45 | 50.69359 | 163.92456 | 32942 ft | 588 kts | 50° |
| 2026-05-04 16:46 | 50.80265 | 164.19769 | 32931 ft | 588 kts | 50° |
| 2026-05-04 16:47 | 50.88958 | 164.41754 | 32940 ft | 586 kts | 49° |
| 2026-05-04 16:48 | 50.97561 | 164.63554 | 32950 ft | 585 kts | 49° |
| 2026-05-04 16:49 | 51.06155 | 164.85460 | 32971 ft | 582 kts | 49° |
| 2026-05-04 16:50 | 51.14681 | 165.07393 | 32964 ft | 582 kts | 49° |
| 2026-05-04 16:51 | 51.21007 | 165.23802 | 32968 ft | 578 kts | 49° |
| 2026-05-04 16:52 | 51.29399 | 165.45714 | 32967 ft | 577 kts | 49° |
| 2026-05-04 16:53 | 51.35627 | 165.62113 | 33279 ft | 572 kts | 48° |
| 2026-05-04 16:53 | 51.41823 | 165.78428 | 34084 ft | 573 kts | 47° |
| 2026-05-04 16:54 | 51.43883 | 165.83862 | 34305 ft | 574 kts | 48° |
| 2026-05-04 16:55 | 51.52160 | 166.05839 | 34973 ft | 578 kts | 48° |
| 2026-05-04 16:55 | 51.56294 | 166.16895 | 34980 ft | 578 kts | 49° |
| 2026-05-04 16:56 | 51.66559 | 166.44583 | 34983 ft | 574 kts | 48° |
| 2026-05-04 16:57 | 51.72654 | 166.61157 | 34987 ft | 572 kts | 48° |
| 2026-05-04 16:58 | 51.80750 | 166.83320 | 34994 ft | 571 kts | 49° |
| 2026-05-04 17:00 | 51.92701 | 167.16417 | 34987 ft | 568 kts | 49° |
| 2026-05-04 17:01 | 52.02515 | 167.43945 | 34988 ft | 561 kts | 49° |
| 2026-05-04 17:02 | 52.10285 | 167.65916 | 35007 ft | 561 kts | 49° |
| 2026-05-04 17:03 | 52.16041 | 167.82349 | 34994 ft | 556 kts | 50° |
| 2026-05-04 17:03 | 52.21783 | 167.98825 | 34995 ft | 556 kts | 50° |
| 2026-05-04 17:04 | 52.29345 | 168.20713 | 35006 ft | 549 kts | 51° |
| 2026-05-04 17:05 | 52.36804 | 168.42475 | 35011 ft | 548 kts | 51° |
| 2026-05-04 17:06 | 52.42346 | 168.58764 | 35018 ft | 544 kts | 52° |
| 2026-05-04 17:07 | 52.47192 | 168.73123 | 35041 ft | 539 kts | 52° |
| 2026-05-04 17:07 | 52.51406 | 168.85655 | 35021 ft | 535 kts | 53° |
| 2026-05-04 17:08 | 52.56777 | 169.01715 | 35027 ft | 532 kts | 55° |
| 2026-05-04 17:09 | 52.60298 | 169.12317 | 35023 ft | 527 kts | 55° |
| 2026-05-04 17:09 | 52.63812 | 169.22928 | 35027 ft | 527 kts | 55° |
| 2026-05-04 17:10 | 52.72528 | 169.49454 | 35031 ft | 519 kts | 57° |
| 2026-05-04 17:11 | 52.75923 | 169.59881 | 35027 ft | 514 kts | 57° |
| 2026-05-04 17:12 | 52.80415 | 169.73717 | 35039 ft | 514 kts | 57° |
| 2026-05-04 17:13 | 52.88779 | 169.99713 | 35039 ft | 507 kts | 58° |
| 2026-05-04 17:14 | 52.95993 | 170.19540 | 35045 ft | 498 kts | 46° |
| 2026-05-04 17:15 | 53.02708 | 170.32684 | 35050 ft | 497 kts | 44° |
| 2026-05-04 17:16 | 53.11746 | 170.50095 | 35054 ft | 497 kts | 44° |
| 2026-05-04 17:17 | 53.20714 | 170.67592 | 35063 ft | 497 kts | 45° |
| 2026-05-04 17:18 | 53.29672 | 170.85202 | 35071 ft | 494 kts | 45° |
| 2026-05-04 17:19 | 53.38542 | 171.02759 | 35075 ft | 494 kts | 45° |
| 2026-05-04 17:20 | 53.47381 | 171.20378 | 35109 ft | 494 kts | 46° |
| 2026-05-04 17:20 | 53.53978 | 171.33613 | 35083 ft | 492 kts | 46° |
| 2026-05-04 17:21 | 53.62760 | 171.51339 | 35086 ft | 493 kts | 47° |
| 2026-05-04 17:22 | 53.67140 | 171.60228 | 35088 ft | 493 kts | 47° |
| 2026-05-04 17:23 | 53.75836 | 171.77969 | 35092 ft | 490 kts | 47° |
| 2026-05-04 17:24 | 53.82349 | 171.91341 | 35099 ft | 490 kts | 47° |
| 2026-05-04 17:25 | 53.91010 | 172.09233 | 35108 ft | 491 kts | 47° |
| 2026-05-04 17:26 | 53.99587 | 172.27081 | 35113 ft | 488 kts | 48° |
| 2026-05-04 17:27 | 54.10291 | 172.49539 | 35116 ft | 488 kts | 48° |
| 2026-05-04 17:28 | 54.18784 | 172.67504 | 35121 ft | 485 kts | 49° |
| 2026-05-04 17:29 | 54.31278 | 172.94726 | 35130 ft | 486 kts | 51° |
| 2026-05-04 17:31 | 54.41320 | 173.17953 | 35137 ft | 483 kts | 51° |
| 2026-05-04 17:32 | 54.51325 | 173.41089 | 35146 ft | 483 kts | 51° |
| 2026-05-04 17:33 | 54.59319 | 173.59743 | 35161 ft | 482 kts | 51° |
| 2026-05-04 17:34 | 54.67233 | 173.78344 | 35151 ft | 482 kts | 51° |
| 2026-05-04 17:35 | 54.77134 | 174.01810 | 35160 ft | 482 kts | 52° |
| 2026-05-04 17:36 | 54.81058 | 174.11173 | 35159 ft | 482 kts | 52° |
| 2026-05-04 17:36 | 54.84985 | 174.20579 | 35165 ft | 481 kts | 52° |
| 2026-05-04 17:37 | 54.88897 | 174.29994 | 35163 ft | 481 kts | 52° |
| 2026-05-04 17:37 | 54.92819 | 174.39448 | 35169 ft | 482 kts | 52° |
| 2026-05-04 17:38 | 54.96733 | 174.48936 | 35172 ft | 482 kts | 52° |
| 2026-05-04 17:38 | 55.00612 | 174.58372 | 35178 ft | 481 kts | 52° |
| 2026-05-04 17:39 | 55.06438 | 174.72599 | 35179 ft | 481 kts | 52° |
| 2026-05-04 17:39 | 55.10325 | 174.82148 | 35180 ft | 481 kts | 52° |
| 2026-05-04 17:40 | 55.14206 | 174.91707 | 35178 ft | 482 kts | 52° |
| 2026-05-04 17:40 | 55.18063 | 175.01262 | 35187 ft | 482 kts | 52° |
| 2026-05-04 17:41 | 55.21936 | 175.10882 | 35187 ft | 482 kts | 52° |
| 2026-05-04 17:41 | 55.25775 | 175.20458 | 35186 ft | 482 kts | 52° |
| 2026-05-04 17:42 | 55.29622 | 175.30091 | 35192 ft | 482 kts | 53° |
| 2026-05-04 17:42 | 55.33475 | 175.39774 | 35192 ft | 482 kts | 53° |
| 2026-05-04 17:43 | 55.37313 | 175.49459 | 35192 ft | 482 kts | 53° |
| 2026-05-04 17:43 | 55.41123 | 175.59111 | 35210 ft | 483 kts | 53° |
| 2026-05-04 17:44 | 55.44942 | 175.68824 | 35200 ft | 482 kts | 53° |
| 2026-05-04 17:44 | 55.48740 | 175.78524 | 35201 ft | 482 kts | 53° |
| 2026-05-04 17:45 | 55.52545 | 175.88278 | 35206 ft | 482 kts | 53° |
| 2026-05-04 17:45 | 55.56342 | 175.98050 | 35206 ft | 482 kts | 53° |
| 2026-05-04 17:46 | 55.60122 | 176.07817 | 35203 ft | 482 kts | 53° |
| 2026-05-04 17:46 | 55.63880 | 176.17568 | 35210 ft | 481 kts | 53° |
| 2026-05-04 17:47 | 55.67651 | 176.27390 | 35215 ft | 481 kts | 53° |
| 2026-05-04 17:47 | 55.71405 | 176.37207 | 35222 ft | 481 kts | 53° |
| 2026-05-04 17:48 | 55.75154 | 176.47049 | 35220 ft | 481 kts | 53° |
| 2026-05-04 17:48 | 55.78894 | 176.56910 | 35220 ft | 481 kts | 53° |
| 2026-05-04 17:49 | 55.82609 | 176.66743 | 35224 ft | 481 kts | 53° |
| 2026-05-04 17:49 | 55.86329 | 176.76628 | 35225 ft | 481 kts | 53° |
| 2026-05-04 17:50 | 55.90045 | 176.86545 | 35225 ft | 481 kts | 53° |
| 2026-05-04 17:50 | 55.93751 | 176.96475 | 35225 ft | 481 kts | 53° |
| 2026-05-04 17:51 | 55.97435 | 177.06384 | 35230 ft | 481 kts | 54° |
| 2026-05-04 17:51 | 56.01140 | 177.16393 | 35230 ft | 481 kts | 54° |
| 2026-05-04 17:52 | 56.04819 | 177.26371 | 35227 ft | 480 kts | 54° |
| 2026-05-04 17:52 | 56.08460 | 177.36288 | 35231 ft | 480 kts | 54° |
| 2026-05-04 17:53 | 56.12120 | 177.46294 | 35231 ft | 480 kts | 54° |
| 2026-05-04 17:53 | 56.15770 | 177.56316 | 35231 ft | 480 kts | 54° |
| 2026-05-04 17:54 | 56.19423 | 177.66388 | 35234 ft | 480 kts | 54° |
| 2026-05-04 17:54 | 56.23059 | 177.76454 | 35238 ft | 480 kts | 54° |
| 2026-05-04 17:55 | 56.26681 | 177.86524 | 35237 ft | 480 kts | 54° |
| 2026-05-04 17:55 | 56.30299 | 177.96625 | 35246 ft | 480 kts | 54° |
| 2026-05-04 17:56 | 56.33892 | 178.06698 | 35242 ft | 479 kts | 54° |
| 2026-05-04 17:56 | 56.37480 | 178.16799 | 35246 ft | 479 kts | 54° |
| 2026-05-04 17:57 | 56.41064 | 178.26928 | 35245 ft | 479 kts | 54° |
| 2026-05-04 17:57 | 56.44648 | 178.37102 | 35243 ft | 479 kts | 54° |
| 2026-05-04 17:58 | 56.48229 | 178.47312 | 35246 ft | 479 kts | 54° |
| 2026-05-04 17:58 | 56.51788 | 178.57499 | 35249 ft | 479 kts | 54° |
| 2026-05-04 17:59 | 56.55347 | 178.67731 | 35249 ft | 479 kts | 54° |
| 2026-05-04 18:00 | 56.60658 | 178.83082 | 35253 ft | 479 kts | 55° |
| 2026-05-04 18:00 | 56.64196 | 178.93364 | 35252 ft | 480 kts | 55° |
| 2026-05-04 18:01 | 56.67123 | 179.01900 | 35252 ft | 480 kts | 55° |
| 2026-05-04 18:01 | 56.71224 | 179.13913 | 35249 ft | 480 kts | 55° |
| 2026-05-04 18:02 | 56.75910 | 179.27714 | 35252 ft | 480 kts | 55° |
| 2026-05-04 18:02 | 56.79411 | 179.38075 | 35252 ft | 480 kts | 55° |
| 2026-05-04 18:03 | 56.82910 | 179.48480 | 35253 ft | 480 kts | 55° |
| 2026-05-04 18:03 | 56.86396 | 179.58891 | 35249 ft | 480 kts | 55° |
| 2026-05-04 18:04 | 56.89871 | 179.69310 | 35248 ft | 480 kts | 55° |
| 2026-05-04 18:05 | 56.95046 | 179.84913 | 35252 ft | 480 kts | 55° |
| 2026-05-04 18:05 | 56.98508 | 179.95409 | 35251 ft | 480 kts | 55° |
| 2026-05-04 18:06 | 57.04169 | -179.89525 | 35251 ft | 478 kts | 51° |
| 2026-05-04 18:06 | 57.08094 | -179.79623 | 35252 ft | 478 kts | 50° |
| 2026-05-04 18:07 | 57.12007 | -179.69745 | 35253 ft | 478 kts | 50° |
| 2026-05-04 18:07 | 57.15922 | -179.59803 | 35252 ft | 479 kts | 51° |
| 2026-05-04 18:08 | 57.19807 | -179.49884 | 35254 ft | 479 kts | 51° |
| 2026-05-04 18:08 | 57.23701 | -179.39895 | 35254 ft | 479 kts | 51° |
| 2026-05-04 18:09 | 57.31460 | -179.19872 | 35257 ft | 480 kts | 51° |
| 2026-05-04 18:10 | 57.35348 | -179.09775 | 35257 ft | 480 kts | 51° |
| 2026-05-04 18:10 | 57.39182 | -178.99777 | 35259 ft | 480 kts | 51° |
| 2026-05-04 18:11 | 57.43057 | -178.89630 | 35256 ft | 480 kts | 51° |
| 2026-05-04 18:11 | 57.46890 | -178.79550 | 35275 ft | 480 kts | 51° |
| 2026-05-04 18:12 | 57.50740 | -178.69383 | 35258 ft | 480 kts | 51° |
| 2026-05-04 18:12 | 57.54583 | -178.59189 | 35251 ft | 480 kts | 51° |
| 2026-05-04 18:13 | 57.58405 | -178.49012 | 35255 ft | 480 kts | 51° |
| 2026-05-04 18:14 | 57.64130 | -178.33683 | 35251 ft | 480 kts | 52° |
| 2026-05-04 18:14 | 57.67935 | -178.23440 | 35261 ft | 481 kts | 52° |
| 2026-05-04 18:15 | 57.75536 | -178.02847 | 35256 ft | 480 kts | 52° |
| 2026-05-04 18:16 | 57.79320 | -177.92531 | 35255 ft | 480 kts | 52° |
| 2026-05-04 18:16 | 57.83083 | -177.82224 | 35256 ft | 480 kts | 52° |
| 2026-05-04 18:17 | 57.88727 | -177.66686 | 35254 ft | 480 kts | 52° |
| 2026-05-04 18:18 | 57.94335 | -177.51143 | 35256 ft | 480 kts | 52° |
| 2026-05-04 18:18 | 57.98078 | -177.40716 | 35251 ft | 479 kts | 52° |
| 2026-05-04 18:19 | 58.03656 | -177.25087 | 35252 ft | 480 kts | 52° |
| 2026-05-04 18:19 | 58.07368 | -177.14630 | 35252 ft | 480 kts | 53° |
| 2026-05-04 18:20 | 58.11072 | -177.04150 | 35252 ft | 480 kts | 53° |
| 2026-05-04 18:20 | 58.14758 | -176.93674 | 35252 ft | 480 kts | 53° |
| 2026-05-04 18:21 | 58.18443 | -176.83155 | 35253 ft | 479 kts | 52° |
| 2026-05-04 18:21 | 58.22124 | -176.72601 | 35247 ft | 480 kts | 52° |
| 2026-05-04 18:22 | 58.25794 | -176.62032 | 35253 ft | 480 kts | 53° |
| 2026-05-04 18:22 | 58.29459 | -176.51431 | 35243 ft | 480 kts | 53° |
| 2026-05-04 18:23 | 58.33118 | -176.40798 | 35247 ft | 480 kts | 53° |
| 2026-05-04 18:23 | 58.36758 | -176.30176 | 35251 ft | 480 kts | 53° |
| 2026-05-04 18:24 | 58.40395 | -176.19511 | 35246 ft | 479 kts | 53° |
| 2026-05-04 18:24 | 58.44021 | -176.08829 | 35247 ft | 480 kts | 52° |
| 2026-05-04 18:25 | 58.47628 | -175.98158 | 35247 ft | 480 kts | 53° |
| 2026-05-04 18:25 | 58.51253 | -175.87385 | 35247 ft | 480 kts | 53° |
| 2026-05-04 18:26 | 58.54854 | -175.76636 | 35247 ft | 480 kts | 53° |
| 2026-05-04 18:26 | 58.58432 | -175.65905 | 35241 ft | 480 kts | 53° |
| 2026-05-04 18:27 | 58.62023 | -175.55086 | 35245 ft | 480 kts | 53° |
| 2026-05-04 18:27 | 58.65592 | -175.44285 | 35241 ft | 480 kts | 53° |
| 2026-05-04 18:28 | 58.69151 | -175.33463 | 35241 ft | 481 kts | 53° |
| 2026-05-04 18:28 | 58.72723 | -175.22555 | 35243 ft | 482 kts | 53° |
| 2026-05-04 18:29 | 58.76297 | -175.11587 | 35235 ft | 482 kts | 53° |
| 2026-05-04 18:29 | 58.79831 | -175.00689 | 35234 ft | 482 kts | 53° |
| 2026-05-04 18:30 | 58.85154 | -174.84185 | 35235 ft | 482 kts | 53° |
| 2026-05-04 18:31 | 58.88666 | -174.73228 | 35236 ft | 482 kts | 54° |
| 2026-05-04 18:31 | 58.92185 | -174.62199 | 35233 ft | 482 kts | 54° |
| 2026-05-04 18:32 | 58.95718 | -174.51079 | 35233 ft | 483 kts | 54° |
| 2026-05-04 18:32 | 58.99214 | -174.40020 | 35233 ft | 484 kts | 54° |
| 2026-05-04 18:33 | 59.02727 | -174.28851 | 35230 ft | 484 kts | 54° |
| 2026-05-04 18:33 | 59.06232 | -174.17663 | 35232 ft | 484 kts | 55° |
| 2026-05-04 18:34 | 59.09717 | -174.06499 | 35230 ft | 484 kts | 55° |
| 2026-05-04 18:34 | 59.13186 | -173.95331 | 35227 ft | 484 kts | 55° |
| 2026-05-04 18:35 | 59.16669 | -173.84064 | 35225 ft | 484 kts | 55° |
| 2026-05-04 18:35 | 59.20129 | -173.72819 | 35225 ft | 485 kts | 55° |
| 2026-05-04 18:36 | 59.23602 | -173.61476 | 35226 ft | 485 kts | 56° |
| 2026-05-04 18:36 | 59.27038 | -173.50202 | 35225 ft | 485 kts | 56° |
| 2026-05-04 18:37 | 59.30480 | -173.38851 | 35224 ft | 485 kts | 56° |
| 2026-05-04 18:37 | 59.33913 | -173.27473 | 35221 ft | 485 kts | 56° |
| 2026-05-04 18:38 | 59.37329 | -173.16095 | 35217 ft | 485 kts | 56° |
| 2026-05-04 18:38 | 59.40744 | -173.04665 | 35218 ft | 485 kts | 56° |
| 2026-05-04 18:39 | 59.44158 | -172.93183 | 35220 ft | 486 kts | 57° |
| 2026-05-04 18:39 | 59.47567 | -172.81660 | 35217 ft | 487 kts | 57° |
| 2026-05-04 18:40 | 59.50949 | -172.70170 | 35212 ft | 487 kts | 57° |
| 2026-05-04 18:40 | 59.54337 | -172.58602 | 35210 ft | 487 kts | 57° |
| 2026-05-04 18:41 | 59.57721 | -172.46992 | 35212 ft | 487 kts | 57° |
| 2026-05-04 18:41 | 59.61065 | -172.35460 | 35203 ft | 487 kts | 57° |
| 2026-05-04 18:42 | 59.64416 | -172.23842 | 35206 ft | 487 kts | 57° |
| 2026-05-04 18:42 | 59.67760 | -172.12193 | 35213 ft | 488 kts | 58° |
| 2026-05-04 18:43 | 59.71106 | -172.00479 | 35202 ft | 489 kts | 58° |
| 2026-05-04 18:43 | 59.74442 | -171.88737 | 35201 ft | 489 kts | 58° |
| 2026-05-04 18:44 | 59.77773 | -171.76951 | 35199 ft | 489 kts | 58° |
| 2026-05-04 18:44 | 59.81091 | -171.65152 | 35199 ft | 489 kts | 58° |
| 2026-05-04 18:45 | 59.84412 | -171.53280 | 35196 ft | 489 kts | 58° |
| 2026-05-04 18:45 | 59.87697 | -171.41478 | 35196 ft | 489 kts | 58° |
| 2026-05-04 18:46 | 59.90992 | -171.29575 | 35198 ft | 491 kts | 58° |
| 2026-05-04 18:46 | 59.94288 | -171.17609 | 35192 ft | 493 kts | 58° |
| 2026-05-04 18:47 | 59.97557 | -171.05677 | 35192 ft | 493 kts | 59° |
| 2026-05-04 18:47 | 60.00849 | -170.93594 | 35186 ft | 493 kts | 59° |
| 2026-05-04 18:48 | 60.04122 | -170.81518 | 35186 ft | 493 kts | 59° |
| 2026-05-04 18:48 | 60.07358 | -170.69515 | 35186 ft | 493 kts | 59° |
| 2026-05-04 18:49 | 60.10610 | -170.57389 | 35182 ft | 494 kts | 59° |
| 2026-05-04 18:49 | 60.13855 | -170.45224 | 35183 ft | 495 kts | 59° |
| 2026-05-04 18:50 | 60.17082 | -170.33061 | 35175 ft | 496 kts | 59° |
| 2026-05-04 18:50 | 60.20316 | -170.20803 | 35175 ft | 496 kts | 59° |
| 2026-05-04 18:51 | 60.23524 | -170.08575 | 35177 ft | 496 kts | 60° |
| 2026-05-04 18:51 | 60.26206 | -169.98302 | 35173 ft | 496 kts | 60° |
| 2026-05-04 18:52 | 60.29930 | -169.83960 | 35174 ft | 497 kts | 60° |
| 2026-05-04 18:52 | 60.33129 | -169.71569 | 35167 ft | 498 kts | 60° |
| 2026-05-04 18:53 | 60.36321 | -169.59128 | 35167 ft | 499 kts | 60° |
| 2026-05-04 18:53 | 60.38977 | -169.48729 | 35165 ft | 500 kts | 60° |
| 2026-05-04 18:54 | 60.42150 | -169.36243 | 35165 ft | 501 kts | 60° |
| 2026-05-04 18:54 | 60.45323 | -169.23680 | 35162 ft | 501 kts | 61° |
| 2026-05-04 18:55 | 60.48492 | -169.11062 | 35160 ft | 501 kts | 62° |
| 2026-05-04 18:55 | 60.53220 | -168.92103 | 35157 ft | 502 kts | 62° |
| 2026-05-04 18:56 | 60.56342 | -168.79495 | 35156 ft | 503 kts | 62° |
| 2026-05-04 18:56 | 60.59481 | -168.66742 | 35158 ft | 505 kts | 62° |
| 2026-05-04 18:57 | 60.62625 | -168.53898 | 35156 ft | 506 kts | 62° |
| 2026-05-04 18:57 | 60.65736 | -168.41111 | 35154 ft | 506 kts | 62° |
| 2026-05-04 18:58 | 60.68853 | -168.28226 | 35154 ft | 507 kts | 63° |
| 2026-05-04 18:58 | 60.71969 | -168.15266 | 35149 ft | 508 kts | 63° |
| 2026-05-04 18:59 | 60.75064 | -168.02318 | 35148 ft | 509 kts | 63° |
| 2026-05-04 18:59 | 60.78153 | -167.89313 | 35148 ft | 509 kts | 63° |
| 2026-05-04 19:00 | 60.81240 | -167.76247 | 35147 ft | 510 kts | 63° |
| 2026-05-04 19:00 | 60.84316 | -167.63140 | 35146 ft | 511 kts | 64° |
| 2026-05-04 19:01 | 60.87389 | -167.49970 | 35137 ft | 512 kts | 64° |
| 2026-05-04 19:01 | 60.90444 | -167.36794 | 35138 ft | 513 kts | 64° |
| 2026-05-04 19:02 | 60.93504 | -167.23517 | 35135 ft | 514 kts | 64° |
| 2026-05-04 19:02 | 60.96556 | -167.10195 | 35135 ft | 513 kts | 65° |
| 2026-05-04 19:03 | 60.99586 | -166.96884 | 35135 ft | 514 kts | 65° |
| 2026-05-04 19:03 | 61.02597 | -166.83573 | 35124 ft | 515 kts | 65° |
| 2026-05-04 19:04 | 61.05630 | -166.70084 | 35126 ft | 516 kts | 66° |
| 2026-05-04 19:04 | 61.08617 | -166.56714 | 35125 ft | 516 kts | 66° |
| 2026-05-04 19:05 | 61.11624 | -166.43160 | 35123 ft | 516 kts | 66° |
| 2026-05-04 19:05 | 61.14581 | -166.29751 | 35128 ft | 516 kts | 66° |
| 2026-05-04 19:06 | 61.17554 | -166.16181 | 35127 ft | 516 kts | 66° |
| 2026-05-04 19:06 | 61.20508 | -166.02616 | 35129 ft | 516 kts | 66° |
| 2026-05-04 19:07 | 61.23443 | -165.89048 | 35138 ft | 517 kts | 67° |
| 2026-05-04 19:07 | 61.26386 | -165.75354 | 35149 ft | 519 kts | 67° |
| 2026-05-04 19:08 | 61.29303 | -165.61688 | 35150 ft | 519 kts | 68° |
| 2026-05-04 19:08 | 61.32213 | -165.47967 | 35153 ft | 519 kts | 68° |
| 2026-05-04 19:09 | 61.35122 | -165.34162 | 35154 ft | 519 kts | 68° |
| 2026-05-04 19:09 | 61.37997 | -165.20425 | 35155 ft | 519 kts | 68° |
| 2026-05-04 19:10 | 61.40880 | -165.06557 | 35153 ft | 519 kts | 68° |
| 2026-05-04 19:10 | 61.43736 | -164.92725 | 35143 ft | 519 kts | 68° |
| 2026-05-04 19:11 | 61.46577 | -164.78877 | 35143 ft | 519 kts | 68° |
| 2026-05-04 19:11 | 61.49402 | -164.65011 | 35143 ft | 519 kts | 68° |
| 2026-05-04 19:12 | 61.53625 | -164.44101 | 35138 ft | 519 kts | 69° |
| 2026-05-04 19:13 | 61.56401 | -164.30239 | 35136 ft | 519 kts | 69° |
| 2026-05-04 19:13 | 61.59181 | -164.16252 | 35129 ft | 519 kts | 70° |
| 2026-05-04 19:14 | 61.61947 | -164.02252 | 35133 ft | 520 kts | 70° |
| 2026-05-04 19:14 | 61.64707 | -163.88182 | 35124 ft | 521 kts | 70° |
| 2026-05-04 19:15 | 61.67474 | -163.73978 | 35127 ft | 521 kts | 70° |
| 2026-05-04 19:15 | 61.70193 | -163.59919 | 35121 ft | 521 kts | 70° |
| 2026-05-04 19:16 | 61.72911 | -163.45763 | 35121 ft | 521 kts | 70° |
| 2026-05-04 19:16 | 61.75622 | -163.31549 | 35120 ft | 521 kts | 71° |
| 2026-05-04 19:17 | 61.78312 | -163.17338 | 35112 ft | 521 kts | 71° |
| 2026-05-04 19:17 | 61.80984 | -163.03117 | 35114 ft | 522 kts | 71° |
| 2026-05-04 19:18 | 61.83658 | -162.88784 | 35114 ft | 523 kts | 71° |
| 2026-05-04 19:18 | 61.86312 | -162.74451 | 35113 ft | 523 kts | 72° |
| 2026-05-04 19:19 | 61.88938 | -162.60169 | 35110 ft | 523 kts | 72° |
| 2026-05-04 19:19 | 61.91562 | -162.45790 | 35112 ft | 522 kts | 73° |
| 2026-05-04 19:20 | 61.94173 | -162.31373 | 35116 ft | 522 kts | 73° |
| 2026-05-04 19:20 | 61.96767 | -162.16946 | 35115 ft | 522 kts | 73° |
| 2026-05-04 19:21 | 61.99346 | -162.02489 | 35113 ft | 524 kts | 73° |
| 2026-05-04 19:21 | 62.01917 | -161.87968 | 35113 ft | 525 kts | 73° |
| 2026-05-04 19:22 | 62.04476 | -161.73410 | 35079 ft | 525 kts | 73° |
| 2026-05-04 19:22 | 62.07020 | -161.58822 | 35080 ft | 524 kts | 75° |
| 2026-05-04 19:23 | 62.09528 | -161.44331 | 35058 ft | 523 kts | 75° |
| 2026-05-04 19:23 | 62.12035 | -161.29725 | 35060 ft | 523 kts | 75° |
| 2026-05-04 19:24 | 62.14518 | -161.15144 | 35117 ft | 522 kts | 75° |
| 2026-05-04 19:24 | 62.16984 | -161.00557 | 35122 ft | 525 kts | 75° |
| 2026-05-04 19:25 | 62.19453 | -160.85826 | 35139 ft | 526 kts | 75° |
| 2026-05-04 19:25 | 62.21924 | -160.70981 | 35165 ft | 524 kts | 76° |
| 2026-05-04 19:26 | 62.24344 | -160.56335 | 35175 ft | 522 kts | 76° |
| 2026-05-04 19:26 | 62.26751 | -160.41634 | 35192 ft | 522 kts | 76° |
| 2026-05-04 19:27 | 62.29137 | -160.26935 | 35126 ft | 522 kts | 76° |
| 2026-05-04 19:27 | 62.31508 | -160.12216 | 35098 ft | 522 kts | 76° |
| 2026-05-04 19:28 | 62.33871 | -159.97420 | 35047 ft | 525 kts | 77° |
| 2026-05-04 19:28 | 62.36230 | -159.82532 | 35043 ft | 525 kts | 77° |
| 2026-05-04 19:29 | 62.38573 | -159.67637 | 35027 ft | 523 kts | 77° |
| 2026-05-04 19:29 | 62.40873 | -159.52883 | 35031 ft | 522 kts | 78° |
| 2026-05-04 19:30 | 62.43173 | -159.37997 | 35035 ft | 522 kts | 78° |
| 2026-05-04 19:30 | 62.45453 | -159.23115 | 35037 ft | 522 kts | 78° |
| 2026-05-04 19:31 | 62.47715 | -159.08230 | 35032 ft | 522 kts | 78° |
| 2026-05-04 19:31 | 62.49961 | -158.93307 | 35012 ft | 524 kts | 79° |
| 2026-05-04 19:32 | 62.52200 | -158.78319 | 35035 ft | 523 kts | 79° |
| 2026-05-04 19:32 | 62.54429 | -158.63281 | 35030 ft | 523 kts | 79° |
| 2026-05-04 19:33 | 62.56633 | -158.48268 | 35024 ft | 522 kts | 79° |
| 2026-05-04 19:33 | 62.58818 | -158.33250 | 35028 ft | 522 kts | 79° |
| 2026-05-04 19:34 | 62.60987 | -158.18205 | 35019 ft | 522 kts | 80° |
| 2026-05-04 19:34 | 62.63133 | -158.03187 | 35015 ft | 521 kts | 81° |
| 2026-05-04 19:35 | 62.65270 | -157.88091 | 34968 ft | 525 kts | 81° |
| 2026-05-04 19:35 | 62.67393 | -157.72959 | 34970 ft | 525 kts | 81° |
| 2026-05-04 19:36 | 62.69514 | -157.57714 | 34935 ft | 526 kts | 81° |
| 2026-05-04 19:36 | 62.71614 | -157.42486 | 34948 ft | 525 kts | 81° |
| 2026-05-04 19:37 | 62.73704 | -157.27179 | 34950 ft | 525 kts | 81° |
| 2026-05-04 19:37 | 62.75757 | -157.11997 | 34927 ft | 524 kts | 82° |
| 2026-05-04 19:38 | 62.77810 | -156.96689 | 34973 ft | 523 kts | 82° |
| 2026-05-04 19:38 | 62.79835 | -156.81414 | 34966 ft | 527 kts | 82° |
| 2026-05-04 19:39 | 62.81517 | -156.68600 | 34967 ft | 528 kts | 82° |
| 2026-05-04 19:39 | 62.83531 | -156.53167 | 34971 ft | 528 kts | 82° |
| 2026-05-04 19:40 | 62.85859 | -156.35137 | 34985 ft | 528 kts | 82° |
| 2026-05-04 19:40 | 62.87504 | -156.22263 | 34979 ft | 527 kts | 83° |
| 2026-05-04 19:41 | 62.89467 | -156.06743 | 34986 ft | 527 kts | 83° |
| 2026-05-04 19:41 | 62.91403 | -155.91296 | 34977 ft | 527 kts | 83° |
| 2026-05-04 19:42 | 62.93335 | -155.75722 | 34981 ft | 529 kts | 83° |
| 2026-05-04 19:42 | 62.95056 | -155.60125 | 34973 ft | 522 kts | 91° |
| 2026-05-04 19:43 | 62.95957 | -155.44351 | 34970 ft | 519 kts | 92° |
| 2026-05-04 19:43 | 62.96692 | -155.28567 | 34945 ft | 518 kts | 93° |
| 2026-05-04 19:44 | 62.97383 | -155.12900 | 34975 ft | 516 kts | 94° |
| 2026-05-04 19:44 | 62.98067 | -154.97199 | 34980 ft | 516 kts | 94° |
| 2026-05-04 19:45 | 62.98745 | -154.81439 | 34969 ft | 516 kts | 94° |
| 2026-05-04 19:45 | 62.99401 | -154.65837 | 34955 ft | 515 kts | 94° |
| 2026-05-04 19:46 | 63.00044 | -154.50143 | 34955 ft | 515 kts | 94° |
| 2026-05-04 19:46 | 63.00671 | -154.34416 | 34943 ft | 515 kts | 94° |
| 2026-05-04 19:47 | 63.01281 | -154.18707 | 34953 ft | 514 kts | 94° |
| 2026-05-04 19:47 | 63.01870 | -154.03028 | 34954 ft | 514 kts | 95° |
| 2026-05-04 19:48 | 63.02438 | -153.87461 | 34954 ft | 513 kts | 95° |
| 2026-05-04 19:48 | 63.02992 | -153.71770 | 34955 ft | 513 kts | 95° |
| 2026-05-04 19:49 | 63.03530 | -153.56044 | 34958 ft | 513 kts | 95° |
| 2026-05-04 19:49 | 63.04049 | -153.40388 | 34950 ft | 511 kts | 95° |
| 2026-05-04 19:50 | 63.04546 | -153.24842 | 34946 ft | 510 kts | 95° |
| 2026-05-04 19:50 | 63.05025 | -153.09267 | 34939 ft | 510 kts | 95° |
| 2026-05-04 19:51 | 63.05488 | -152.93574 | 34949 ft | 514 kts | 96° |
| 2026-05-04 19:51 | 63.05938 | -152.77817 | 34945 ft | 515 kts | 96° |
| 2026-05-04 19:52 | 63.06372 | -152.62155 | 34933 ft | 514 kts | 96° |
| 2026-05-04 19:52 | 63.06791 | -152.46425 | 34960 ft | 513 kts | 96° |
| 2026-05-04 19:53 | 63.07187 | -152.30743 | 34963 ft | 512 kts | 96° |
| 2026-05-04 19:53 | 63.07566 | -152.15033 | 34964 ft | 512 kts | 96° |
| 2026-05-04 19:54 | 63.07928 | -151.99325 | 34967 ft | 512 kts | 96° |
| 2026-05-04 19:54 | 63.08273 | -151.83630 | 34966 ft | 511 kts | 97° |
| 2026-05-04 19:55 | 63.08599 | -151.68027 | 34968 ft | 511 kts | 96° |
| 2026-05-04 19:55 | 63.08907 | -151.52312 | 34975 ft | 514 kts | 97° |
| 2026-05-04 19:56 | 63.09198 | -151.36489 | 34977 ft | 517 kts | 97° |
| 2026-05-04 19:56 | 63.09481 | -151.20563 | 34977 ft | 517 kts | 97° |
| 2026-05-04 19:57 | 63.09740 | -151.04661 | 34993 ft | 517 kts | 97° |
| 2026-05-04 19:57 | 63.09982 | -150.88869 | 34936 ft | 516 kts | 97° |
| 2026-05-04 19:58 | 63.10207 | -150.73039 | 35018 ft | 516 kts | 97° |
| 2026-05-04 19:58 | 63.10416 | -150.57199 | 35034 ft | 516 kts | 97° |
| 2026-05-04 19:59 | 63.10629 | -150.41449 | 35029 ft | 516 kts | 97° |
| 2026-05-04 19:59 | 63.10787 | -150.25600 | 35049 ft | 514 kts | 97° |
| 2026-05-04 20:00 | 63.10928 | -150.09800 | 35039 ft | 516 kts | 97° |
| 2026-05-04 20:00 | 63.11059 | -149.93882 | 35056 ft | 518 kts | 97° |
| 2026-05-04 20:01 | 63.11178 | -149.77892 | 35083 ft | 519 kts | 97° |
| 2026-05-04 20:01 | 63.11280 | -149.62079 | 35079 ft | 518 kts | 98° |
| 2026-05-04 20:02 | 63.11364 | -149.46174 | 35071 ft | 517 kts | 98° |
| 2026-05-04 20:02 | 63.11429 | -149.30254 | 35071 ft | 517 kts | 98° |
| 2026-05-04 20:03 | 63.11476 | -149.14339 | 35033 ft | 516 kts | 98° |
| 2026-05-04 20:03 | 63.11504 | -148.98480 | 35076 ft | 517 kts | 98° |
| 2026-05-04 20:04 | 63.11515 | -148.82579 | 35086 ft | 517 kts | 98° |
| 2026-05-04 20:04 | 63.11508 | -148.66738 | 35088 ft | 519 kts | 98° |
| 2026-05-04 20:05 | 63.11480 | -148.50672 | 35094 ft | 524 kts | 98° |
| 2026-05-04 20:05 | 63.11440 | -148.34608 | 35099 ft | 523 kts | 99° |
| 2026-05-04 20:06 | 63.11382 | -148.18585 | 35092 ft | 523 kts | 99° |
| 2026-05-04 20:06 | 63.11304 | -148.02507 | 35101 ft | 522 kts | 99° |
| 2026-05-04 20:07 | 63.11208 | -147.86441 | 35102 ft | 522 kts | 99° |
| 2026-05-04 20:07 | 63.11092 | -147.70403 | 35089 ft | 522 kts | 99° |
| 2026-05-04 20:08 | 63.10957 | -147.54408 | 35099 ft | 522 kts | 99° |
| 2026-05-04 20:08 | 63.10805 | -147.38386 | 35094 ft | 521 kts | 99° |
| 2026-05-04 20:09 | 63.10639 | -147.22463 | 35089 ft | 522 kts | 99° |
| 2026-05-04 20:09 | 63.10449 | -147.06363 | 35101 ft | 526 kts | 99° |
| 2026-05-04 20:10 | 63.10240 | -146.90121 | 35101 ft | 527 kts | 99° |
| 2026-05-04 20:10 | 63.10017 | -146.74032 | 35102 ft | 527 kts | 100° |
| 2026-05-04 20:11 | 63.09772 | -146.57759 | 35105 ft | 527 kts | 100° |
| 2026-05-04 20:11 | 63.09511 | -146.41645 | 35100 ft | 527 kts | 100° |
| 2026-05-04 20:12 | 63.09231 | -146.25471 | 35101 ft | 527 kts | 100° |
| 2026-05-04 20:12 | 63.08932 | -146.09311 | 35109 ft | 527 kts | 101° |
| 2026-05-04 20:13 | 63.08613 | -145.93119 | 35102 ft | 527 kts | 101° |
| 2026-05-04 20:13 | 63.08279 | -145.77036 | 35110 ft | 527 kts | 100° |
| 2026-05-04 20:14 | 63.07918 | -145.60772 | 35082 ft | 531 kts | 100° |
| 2026-05-04 20:14 | 63.07542 | -145.44461 | 35123 ft | 532 kts | 101° |
| 2026-05-04 20:15 | 63.07152 | -145.28233 | 35119 ft | 532 kts | 101° |
| 2026-05-04 20:15 | 63.06737 | -145.11886 | 35120 ft | 532 kts | 101° |
| 2026-05-04 20:16 | 63.06305 | -144.95637 | 35109 ft | 532 kts | 101° |
| 2026-05-04 20:16 | 63.05853 | -144.79369 | 35109 ft | 532 kts | 101° |
| 2026-05-04 20:17 | 63.05383 | -144.63063 | 35109 ft | 532 kts | 101° |
| 2026-05-04 20:17 | 63.04894 | -144.46812 | 35090 ft | 532 kts | 102° |
| 2026-05-04 20:18 | 63.04382 | -144.30521 | 35093 ft | 533 kts | 101° |
| 2026-05-04 20:18 | 63.03847 | -144.14148 | 35099 ft | 537 kts | 101° |
| 2026-05-04 20:19 | 63.03302 | -143.97830 | 35085 ft | 536 kts | 101° |
| 2026-05-04 20:19 | 63.02737 | -143.81418 | 35078 ft | 537 kts | 102° |
| 2026-05-04 20:20 | 63.02151 | -143.65035 | 35086 ft | 537 kts | 102° |
| 2026-05-04 20:20 | 63.01539 | -143.48604 | 35079 ft | 537 kts | 102° |
| 2026-05-04 20:21 | 63.00917 | -143.32223 | 35082 ft | 537 kts | 102° |
| 2026-05-04 20:21 | 62.99944 | -143.07652 | 35074 ft | 537 kts | 102° |
| 2026-05-04 20:22 | 62.99274 | -142.91316 | 35088 ft | 538 kts | 102° |
| 2026-05-04 20:22 | 62.98576 | -142.74841 | 35067 ft | 544 kts | 102° |
| 2026-05-04 20:23 | 62.97851 | -142.58237 | 35068 ft | 545 kts | 102° |
| 2026-05-04 20:23 | 62.97112 | -142.41726 | 35047 ft | 545 kts | 102° |
| 2026-05-04 20:24 | 62.96350 | -142.25110 | 35034 ft | 545 kts | 103° |
| 2026-05-04 20:24 | 62.95572 | -142.08565 | 35006 ft | 544 kts | 103° |
| 2026-05-04 20:25 | 62.95178 | -142.00365 | 35178 ft | 543 kts | 103° |
| 2026-05-04 20:25 | 62.94867 | -141.92009 | 35578 ft | 545 kts | 97° |
| 2026-05-04 20:25 | 62.94869 | -141.83725 | 35966 ft | 544 kts | 95° |
| 2026-05-04 20:25 | 62.94914 | -141.78182 | 36174 ft | 544 kts | 94° |
| 2026-05-04 20:26 | 62.95014 | -141.69910 | 36450 ft | 544 kts | 94° |
| 2026-05-04 20:26 | 62.95177 | -141.58826 | 36810 ft | 544 kts | 93° |
| 2026-05-04 20:26 | 62.95299 | -141.50535 | 37051 ft | 546 kts | 92° |
| 2026-05-04 20:26 | 62.95377 | -141.44961 | 37070 ft | 549 kts | 93° |
| 2026-05-04 20:27 | 62.95593 | -141.28071 | 37077 ft | 551 kts | 93° |
| 2026-05-04 20:27 | 62.95779 | -141.11344 | 37077 ft | 551 kts | 93° |
| 2026-05-04 20:28 | 62.95494 | -140.91712 | 37076 ft | 547 kts | 100° |
| 2026-05-04 20:28 | 62.94889 | -140.77912 | 37082 ft | 546 kts | 101° |
| 2026-05-04 20:29 | 62.94076 | -140.61306 | 37078 ft | 546 kts | 102° |
| 2026-05-04 20:29 | 62.93242 | -140.44719 | 37082 ft | 546 kts | 102° |
| 2026-05-04 20:30 | 62.92400 | -140.28141 | 37073 ft | 546 kts | 102° |
| 2026-05-04 20:30 | 62.91545 | -140.11644 | 37081 ft | 547 kts | 102° |
| 2026-05-04 20:31 | 62.90664 | -139.95009 | 37092 ft | 547 kts | 102° |
| 2026-05-04 20:31 | 62.89769 | -139.78467 | 37087 ft | 548 kts | 102° |
| 2026-05-04 20:32 | 62.88852 | -139.61891 | 37093 ft | 547 kts | 103° |
| 2026-05-04 20:32 | 62.87914 | -139.45330 | 37099 ft | 547 kts | 103° |
| 2026-05-04 20:33 | 62.86959 | -139.28774 | 37095 ft | 548 kts | 103° |
| 2026-05-04 20:33 | 62.85983 | -139.12226 | 37092 ft | 548 kts | 103° |
| 2026-05-04 20:34 | 62.84985 | -138.95627 | 37095 ft | 548 kts | 103° |
| 2026-05-04 20:34 | 62.83968 | -138.79178 | 37090 ft | 551 kts | 103° |
| 2026-05-04 20:35 | 62.82926 | -138.62492 | 37101 ft | 552 kts | 103° |
| 2026-05-04 20:35 | 62.81870 | -138.45930 | 37092 ft | 551 kts | 103° |
| 2026-05-04 20:36 | 62.80794 | -138.29362 | 37109 ft | 551 kts | 103° |
| 2026-05-04 20:36 | 62.79694 | -138.12762 | 37108 ft | 551 kts | 103° |
| 2026-05-04 20:37 | 62.78577 | -137.96217 | 37110 ft | 551 kts | 103° |
| 2026-05-04 20:37 | 62.77442 | -137.79690 | 37114 ft | 551 kts | 104° |
| 2026-05-04 20:38 | 62.76286 | -137.63156 | 37092 ft | 551 kts | 104° |
| 2026-05-04 20:38 | 62.75102 | -137.46581 | 37114 ft | 554 kts | 103° |
| 2026-05-04 20:39 | 62.73896 | -137.29935 | 37110 ft | 556 kts | 103° |
| 2026-05-04 20:39 | 62.72670 | -137.13268 | 37114 ft | 556 kts | 103° |
| 2026-05-04 20:40 | 62.71431 | -136.96710 | 37113 ft | 556 kts | 103° |
| 2026-05-04 20:40 | 62.70165 | -136.80087 | 37113 ft | 556 kts | 104° |
| 2026-05-04 20:41 | 62.68874 | -136.63421 | 37119 ft | 558 kts | 104° |
| 2026-05-04 20:41 | 62.67564 | -136.46766 | 37120 ft | 558 kts | 104° |
| 2026-05-04 20:42 | 62.66236 | -136.30154 | 37116 ft | 558 kts | 104° |
| 2026-05-04 20:42 | 62.64888 | -136.13562 | 37132 ft | 558 kts | 103° |
| 2026-05-04 20:43 | 62.63513 | -135.96894 | 37122 ft | 560 kts | 103° |
| 2026-05-04 20:43 | 62.62112 | -135.80170 | 37125 ft | 562 kts | 103° |
| 2026-05-04 20:44 | 62.60696 | -135.63476 | 37124 ft | 562 kts | 104° |
| 2026-05-04 20:44 | 62.59258 | -135.46783 | 37144 ft | 563 kts | 104° |
| 2026-05-04 20:45 | 62.57805 | -135.30184 | 37144 ft | 562 kts | 104° |
| 2026-05-04 20:45 | 62.56322 | -135.13480 | 37138 ft | 563 kts | 104° |
| 2026-05-04 20:46 | 62.54820 | -134.96814 | 37146 ft | 563 kts | 104° |
| 2026-05-04 20:46 | 62.53303 | -134.80220 | 37141 ft | 564 kts | 103° |
| 2026-05-04 20:47 | 62.51763 | -134.63586 | 37141 ft | 564 kts | 104° |
| 2026-05-04 20:47 | 62.50194 | -134.46941 | 37174 ft | 564 kts | 104° |
| 2026-05-04 20:48 | 62.48608 | -134.30248 | 37146 ft | 564 kts | 104° |
| 2026-05-04 20:48 | 62.47009 | -134.13654 | 37158 ft | 566 kts | 104° |
| 2026-05-04 20:49 | 62.45379 | -133.96999 | 37158 ft | 567 kts | 104° |
| 2026-05-04 20:49 | 62.43724 | -133.80303 | 37156 ft | 567 kts | 104° |
| 2026-05-04 20:50 | 62.42054 | -133.63669 | 37146 ft | 567 kts | 105° |
| 2026-05-04 20:50 | 62.40363 | -133.47037 | 37125 ft | 567 kts | 104° |
| 2026-05-04 20:51 | 62.38663 | -133.30541 | 37136 ft | 568 kts | 104° |
| 2026-05-04 20:51 | 62.36928 | -133.13916 | 37141 ft | 569 kts | 104° |
| 2026-05-04 20:52 | 62.35174 | -132.97283 | 37148 ft | 569 kts | 104° |
| 2026-05-04 20:52 | 62.33400 | -132.80694 | 37152 ft | 569 kts | 104° |
| 2026-05-04 20:53 | 62.31606 | -132.64131 | 37151 ft | 569 kts | 104° |
| 2026-05-04 20:53 | 62.29789 | -132.47558 | 37147 ft | 569 kts | 104° |
| 2026-05-04 20:54 | 62.27949 | -132.30967 | 37150 ft | 570 kts | 105° |
| 2026-05-04 20:54 | 62.26088 | -132.14401 | 37143 ft | 570 kts | 104° |
| 2026-05-04 20:55 | 62.24228 | -131.98002 | 37146 ft | 569 kts | 104° |
| 2026-05-04 20:55 | 62.22324 | -131.81483 | 37108 ft | 568 kts | 104° |
| 2026-05-04 20:56 | 62.20413 | -131.65107 | 37110 ft | 569 kts | 104° |
| 2026-05-04 20:56 | 62.18487 | -131.48659 | 37099 ft | 571 kts | 104° |
| 2026-05-04 20:57 | 62.16530 | -131.32166 | 37099 ft | 571 kts | 104° |
| 2026-05-04 20:57 | 62.14548 | -131.15667 | 37096 ft | 571 kts | 104° |
| 2026-05-04 20:58 | 62.12548 | -130.99215 | 37095 ft | 572 kts | 105° |
| 2026-05-04 20:58 | 62.10532 | -130.82813 | 37112 ft | 570 kts | 104° |
| 2026-05-04 20:59 | 62.08511 | -130.66537 | 37116 ft | 570 kts | 104° |
| 2026-05-04 20:59 | 62.06459 | -130.50204 | 37118 ft | 570 kts | 104° |
| 2026-05-04 21:00 | 62.04377 | -130.33818 | 37128 ft | 570 kts | 104° |
| 2026-05-04 21:00 | 62.02297 | -130.17608 | 37138 ft | 571 kts | 105° |
| 2026-05-04 21:01 | 62.00181 | -130.01291 | 37132 ft | 570 kts | 105° |
| 2026-05-04 21:01 | 61.97898 | -129.85180 | 37168 ft | 570 kts | 108° |
| 2026-05-04 21:02 | 61.95357 | -129.69220 | 37174 ft | 570 kts | 109° |
| 2026-05-04 21:02 | 61.92797 | -129.53247 | 37184 ft | 569 kts | 108° |
| 2026-05-04 21:03 | 61.90288 | -129.37409 | 37183 ft | 568 kts | 108° |
| 2026-05-04 21:03 | 61.87765 | -129.21480 | 37223 ft | 568 kts | 108° |
| 2026-05-04 21:04 | 61.85242 | -129.05694 | 37222 ft | 567 kts | 108° |
| 2026-05-04 21:04 | 61.82689 | -128.89900 | 37233 ft | 568 kts | 108° |
| 2026-05-04 21:05 | 61.80110 | -128.74066 | 37241 ft | 568 kts | 108° |
| 2026-05-04 21:05 | 61.77534 | -128.58380 | 37233 ft | 568 kts | 108° |
| 2026-05-04 21:06 | 61.74919 | -128.42642 | 37233 ft | 569 kts | 108° |
| 2026-05-04 21:06 | 61.72282 | -128.26893 | 37264 ft | 569 kts | 108° |
| 2026-05-04 21:07 | 61.69636 | -128.11180 | 37232 ft | 569 kts | 108° |
| 2026-05-04 21:07 | 61.66980 | -127.95544 | 37215 ft | 568 kts | 108° |
| 2026-05-04 21:08 | 61.64285 | -127.79798 | 37217 ft | 569 kts | 108° |
| 2026-05-04 21:08 | 61.61573 | -127.64116 | 37206 ft | 571 kts | 108° |
| 2026-05-04 21:09 | 61.58856 | -127.48545 | 37205 ft | 571 kts | 108° |
| 2026-05-04 21:09 | 61.56102 | -127.32897 | 37192 ft | 571 kts | 109° |
| 2026-05-04 21:10 | 61.53344 | -127.17272 | 37152 ft | 571 kts | 109° |
| 2026-05-04 21:10 | 61.50551 | -127.01640 | 37140 ft | 571 kts | 109° |
| 2026-05-04 21:11 | 61.47738 | -126.86081 | 37137 ft | 572 kts | 109° |
| 2026-05-04 21:11 | 61.44912 | -126.70554 | 37129 ft | 572 kts | 109° |
| 2026-05-04 21:12 | 61.42074 | -126.55054 | 37125 ft | 572 kts | 109° |
| 2026-05-04 21:12 | 61.39217 | -126.39571 | 37123 ft | 572 kts | 109° |
| 2026-05-04 21:13 | 61.36335 | -126.24097 | 37115 ft | 571 kts | 109° |
| 2026-05-04 21:13 | 61.33447 | -126.08736 | 37125 ft | 570 kts | 109° |
| 2026-05-04 21:14 | 61.30551 | -125.93402 | 37123 ft | 571 kts | 109° |
| 2026-05-04 21:14 | 61.27630 | -125.77993 | 37126 ft | 571 kts | 109° |
| 2026-05-04 21:15 | 61.24689 | -125.62720 | 37150 ft | 571 kts | 109° |
| 2026-05-04 21:15 | 61.21715 | -125.47368 | 37133 ft | 574 kts | 109° |
| 2026-05-04 21:16 | 61.19220 | -125.34544 | 37139 ft | 574 kts | 109° |
| 2026-05-04 21:16 | 61.15713 | -125.16673 | 37145 ft | 574 kts | 109° |
| 2026-05-04 21:17 | 61.13189 | -125.03890 | 37165 ft | 573 kts | 109° |
| 2026-05-04 21:17 | 61.10202 | -124.88711 | 37155 ft | 573 kts | 109° |
| 2026-05-04 21:18 | 61.07129 | -124.73513 | 37184 ft | 573 kts | 110° |
| 2026-05-04 21:18 | 61.04015 | -124.58239 | 37193 ft | 574 kts | 110° |
| 2026-05-04 21:19 | 61.00921 | -124.43085 | 37265 ft | 575 kts | 109° |
| 2026-05-04 21:19 | 60.97816 | -124.27929 | 37186 ft | 575 kts | 109° |
| 2026-05-04 21:20 | 60.94721 | -124.12770 | 37204 ft | 576 kts | 110° |
| 2026-05-04 21:20 | 60.91548 | -123.97615 | 37194 ft | 576 kts | 110° |
| 2026-05-04 21:21 | 60.88336 | -123.82477 | 37219 ft | 579 kts | 110° |
| 2026-05-04 21:21 | 60.85142 | -123.67447 | 37206 ft | 577 kts | 110° |
| 2026-05-04 21:22 | 60.81920 | -123.52290 | 37208 ft | 577 kts | 110° |
| 2026-05-04 21:22 | 60.78713 | -123.37302 | 37214 ft | 577 kts | 110° |
| 2026-05-04 21:23 | 60.75463 | -123.22257 | 37213 ft | 577 kts | 110° |
| 2026-05-04 21:23 | 60.72201 | -123.07283 | 37225 ft | 576 kts | 109° |
| 2026-05-04 21:24 | 60.68926 | -122.92343 | 37223 ft | 576 kts | 110° |
| 2026-05-04 21:24 | 60.65636 | -122.77435 | 37220 ft | 576 kts | 110° |
| 2026-05-04 21:25 | 60.62327 | -122.62552 | 37227 ft | 576 kts | 110° |
| 2026-05-04 21:25 | 60.59014 | -122.47759 | 37222 ft | 576 kts | 110° |
| 2026-05-04 21:26 | 60.55670 | -122.32929 | 37218 ft | 576 kts | 110° |
| 2026-05-04 21:26 | 60.52312 | -122.18143 | 37219 ft | 576 kts | 110° |
| 2026-05-04 21:27 | 60.48947 | -122.03426 | 37224 ft | 577 kts | 110° |
| 2026-05-04 21:27 | 60.45548 | -121.88686 | 37228 ft | 575 kts | 110° |
| 2026-05-04 21:28 | 60.42155 | -121.74046 | 37216 ft | 574 kts | 110° |
| 2026-05-04 21:28 | 60.38757 | -121.59472 | 37221 ft | 574 kts | 110° |
| 2026-05-04 21:29 | 60.35327 | -121.44873 | 37209 ft | 574 kts | 110° |
| 2026-05-04 21:29 | 60.31881 | -121.30304 | 37225 ft | 574 kts | 110° |
| 2026-05-04 21:30 | 60.28442 | -121.15872 | 37210 ft | 574 kts | 110° |
| 2026-05-04 21:30 | 60.24965 | -121.01371 | 37207 ft | 574 kts | 110° |
| 2026-05-04 21:31 | 60.19731 | -120.79715 | 37260 ft | 574 kts | 110° |
| 2026-05-04 21:32 | 60.16229 | -120.65358 | 37197 ft | 570 kts | 110° |
| 2026-05-04 21:32 | 60.12732 | -120.51106 | 37203 ft | 568 kts | 110° |
| 2026-05-04 21:33 | 60.09230 | -120.36917 | 37203 ft | 567 kts | 110° |
| 2026-05-04 21:33 | 60.05719 | -120.22787 | 37214 ft | 568 kts | 110° |
| 2026-05-04 21:34 | 60.02188 | -120.08664 | 37208 ft | 568 kts | 110° |
| 2026-05-04 21:34 | 59.98687 | -119.94594 | 37211 ft | 566 kts | 108° |
| 2026-05-04 21:35 | 59.95657 | -119.80146 | 37214 ft | 561 kts | 104° |
| 2026-05-04 21:35 | 59.92794 | -119.65698 | 37263 ft | 561 kts | 105° |
| 2026-05-04 21:36 | 59.89853 | -119.51378 | 37216 ft | 557 kts | 105° |
| 2026-05-04 21:36 | 59.86847 | -119.37146 | 37222 ft | 557 kts | 106° |
| 2026-05-04 21:37 | 59.83813 | -119.22959 | 37224 ft | 557 kts | 106° |
| 2026-05-04 21:37 | 59.80785 | -119.08891 | 37222 ft | 556 kts | 106° |
| 2026-05-04 21:38 | 59.77715 | -118.94709 | 37231 ft | 556 kts | 106° |
| 2026-05-04 21:38 | 59.74639 | -118.80588 | 37235 ft | 557 kts | 106° |
| 2026-05-04 21:39 | 59.71569 | -118.66589 | 37234 ft | 557 kts | 106° |
| 2026-05-04 21:39 | 59.68468 | -118.52554 | 37244 ft | 554 kts | 107° |
| 2026-05-04 21:40 | 59.65366 | -118.38614 | 37248 ft | 552 kts | 107° |
| 2026-05-04 21:40 | 59.62258 | -118.24719 | 37254 ft | 552 kts | 108° |
| 2026-05-04 21:41 | 59.59145 | -118.10891 | 37257 ft | 552 kts | 108° |
| 2026-05-04 21:41 | 59.56017 | -117.97092 | 37261 ft | 552 kts | 108° |
| 2026-05-04 21:42 | 59.52864 | -117.83274 | 37271 ft | 552 kts | 108° |
| 2026-05-04 21:42 | 59.49693 | -117.69478 | 37273 ft | 551 kts | 108° |
| 2026-05-04 21:43 | 59.46529 | -117.55784 | 37292 ft | 550 kts | 109° |
| 2026-05-04 21:43 | 59.43374 | -117.42221 | 37263 ft | 548 kts | 109° |
| 2026-05-04 21:44 | 59.40191 | -117.28621 | 37267 ft | 548 kts | 109° |
| 2026-05-04 21:44 | 59.36994 | -117.15050 | 37281 ft | 548 kts | 109° |
| 2026-05-04 21:45 | 59.33765 | -117.01430 | 37265 ft | 548 kts | 109° |
| 2026-05-04 21:45 | 59.30555 | -116.87975 | 37265 ft | 548 kts | 109° |
| 2026-05-04 21:46 | 59.27312 | -116.74463 | 37260 ft | 548 kts | 109° |
| 2026-05-04 21:46 | 59.24073 | -116.61050 | 37277 ft | 548 kts | 109° |
| 2026-05-04 21:47 | 59.20816 | -116.47647 | 37252 ft | 544 kts | 110° |
| 2026-05-04 21:47 | 59.17549 | -116.34296 | 37246 ft | 542 kts | 110° |
| 2026-05-04 21:48 | 59.14288 | -116.21034 | 37246 ft | 542 kts | 110° |
| 2026-05-04 21:48 | 59.11014 | -116.07803 | 37246 ft | 542 kts | 110° |
| 2026-05-04 21:49 | 59.07741 | -115.94658 | 37248 ft | 542 kts | 110° |
| 2026-05-04 21:49 | 59.04443 | -115.81492 | 37232 ft | 542 kts | 110° |
| 2026-05-04 21:50 | 59.01122 | -115.68312 | 37233 ft | 543 kts | 111° |
| 2026-05-04 21:50 | 58.97783 | -115.55140 | 37222 ft | 543 kts | 111° |
| 2026-05-04 21:51 | 58.94455 | -115.42088 | 37216 ft | 543 kts | 111° |
| 2026-05-04 21:51 | 58.91085 | -115.28949 | 37209 ft | 543 kts | 111° |
| 2026-05-04 21:52 | 58.87718 | -115.15897 | 37209 ft | 543 kts | 111° |
| 2026-05-04 21:52 | 58.84324 | -115.02821 | 37204 ft | 542 kts | 111° |
| 2026-05-04 21:53 | 58.80958 | -114.89926 | 37206 ft | 542 kts | 111° |
| 2026-05-04 21:53 | 58.77556 | -114.76969 | 37209 ft | 542 kts | 111° |
| 2026-05-04 21:54 | 58.74133 | -114.64002 | 37235 ft | 541 kts | 112° |
| 2026-05-04 21:54 | 58.70735 | -114.51213 | 37221 ft | 538 kts | 112° |
| 2026-05-04 21:55 | 58.67314 | -114.38402 | 37219 ft | 537 kts | 112° |
| 2026-05-04 21:55 | 58.63880 | -114.25614 | 37238 ft | 537 kts | 112° |
| 2026-05-04 21:56 | 58.60453 | -114.12926 | 37238 ft | 537 kts | 112° |
| 2026-05-04 21:56 | 58.57001 | -114.00217 | 37247 ft | 537 kts | 113° |
| 2026-05-04 21:57 | 58.53558 | -113.87612 | 37252 ft | 537 kts | 113° |
| 2026-05-04 21:57 | 58.50083 | -113.74963 | 37257 ft | 537 kts | 113° |
| 2026-05-04 21:58 | 58.46605 | -113.62378 | 37256 ft | 534 kts | 114° |
| 2026-05-04 21:58 | 58.43124 | -113.49848 | 37262 ft | 532 kts | 114° |
| 2026-05-04 21:59 | 58.39643 | -113.37376 | 37265 ft | 532 kts | 114° |
| 2026-05-04 21:59 | 58.36162 | -113.24976 | 37270 ft | 532 kts | 114° |
| 2026-05-04 22:00 | 58.32653 | -113.12546 | 37280 ft | 532 kts | 114° |
| 2026-05-04 22:00 | 58.29140 | -113.00169 | 37284 ft | 532 kts | 114° |
| 2026-05-04 22:01 | 58.25634 | -112.87881 | 37278 ft | 532 kts | 114° |
| 2026-05-04 22:01 | 58.22097 | -112.75552 | 37296 ft | 531 kts | 115° |
| 2026-05-04 22:02 | 58.18553 | -112.63267 | 37280 ft | 529 kts | 115° |
| 2026-05-04 22:02 | 58.15609 | -112.53109 | 37283 ft | 529 kts | 115° |
| 2026-05-04 22:03 | 58.12062 | -112.40931 | 37295 ft | 528 kts | 115° |
| 2026-05-04 22:03 | 58.08494 | -112.28740 | 37285 ft | 528 kts | 115° |
| 2026-05-04 22:04 | 58.04947 | -112.16690 | 37286 ft | 528 kts | 115° |
| 2026-05-04 22:04 | 58.01362 | -112.04568 | 37288 ft | 528 kts | 115° |
| 2026-05-04 22:05 | 57.97782 | -111.92462 | 37298 ft | 528 kts | 115° |
| 2026-05-04 22:05 | 57.94262 | -111.80358 | 37291 ft | 525 kts | 115° |
| 2026-05-04 22:06 | 57.90753 | -111.68323 | 37292 ft | 524 kts | 115° |
| 2026-05-04 22:06 | 57.87231 | -111.56336 | 37293 ft | 524 kts | 115° |
| 2026-05-04 22:07 | 57.83689 | -111.44369 | 37292 ft | 524 kts | 115° |
| 2026-05-04 22:07 | 57.80140 | -111.32445 | 37296 ft | 524 kts | 115° |
| 2026-05-04 22:08 | 57.76598 | -111.20605 | 37292 ft | 524 kts | 115° |
| 2026-05-04 22:08 | 57.73016 | -111.08692 | 37293 ft | 524 kts | 115° |
| 2026-05-04 22:09 | 57.69449 | -110.96887 | 37289 ft | 523 kts | 116° |
| 2026-05-04 22:09 | 57.65865 | -110.85088 | 37284 ft | 521 kts | 116° |
| 2026-05-04 22:10 | 57.62269 | -110.73308 | 37282 ft | 521 kts | 116° |
| 2026-05-04 22:10 | 57.58694 | -110.61654 | 37271 ft | 521 kts | 116° |
| 2026-05-04 22:11 | 57.55084 | -110.49942 | 37267 ft | 521 kts | 116° |
| 2026-05-04 22:11 | 57.51465 | -110.38262 | 37266 ft | 521 kts | 116° |
| 2026-05-04 22:12 | 57.47825 | -110.26570 | 37249 ft | 521 kts | 116° |
| 2026-05-04 22:12 | 57.44196 | -110.14974 | 37280 ft | 521 kts | 117° |
| 2026-05-04 22:13 | 57.40543 | -110.03360 | 37249 ft | 519 kts | 117° |
| 2026-05-04 22:13 | 57.36899 | -109.91830 | 37231 ft | 519 kts | 117° |
| 2026-05-04 22:14 | 57.33243 | -109.80315 | 37236 ft | 519 kts | 117° |
| 2026-05-04 22:14 | 57.29573 | -109.68811 | 37236 ft | 519 kts | 117° |
| 2026-05-04 22:15 | 57.25889 | -109.57323 | 37220 ft | 519 kts | 117° |
| 2026-05-04 22:15 | 57.22201 | -109.45875 | 37212 ft | 520 kts | 117° |
| 2026-05-04 22:16 | 57.18500 | -109.34446 | 37203 ft | 520 kts | 117° |
| 2026-05-04 22:16 | 57.14785 | -109.23028 | 37200 ft | 518 kts | 117° |
| 2026-05-04 22:17 | 57.11073 | -109.11674 | 37197 ft | 517 kts | 117° |
| 2026-05-04 22:17 | 57.07350 | -109.00337 | 37200 ft | 517 kts | 117° |
| 2026-05-04 22:18 | 57.03627 | -108.89054 | 37197 ft | 517 kts | 118° |
| 2026-05-04 22:18 | 56.99892 | -108.77790 | 37192 ft | 518 kts | 118° |
| 2026-05-04 22:19 | 56.96143 | -108.66535 | 37188 ft | 518 kts | 118° |
| 2026-05-04 22:19 | 56.92377 | -108.55285 | 37193 ft | 518 kts | 118° |
| 2026-05-04 22:20 | 56.88582 | -108.43998 | 37195 ft | 518 kts | 118° |
| 2026-05-04 22:20 | 56.84813 | -108.32843 | 37197 ft | 517 kts | 118° |
| 2026-05-04 22:21 | 56.81028 | -108.21693 | 37181 ft | 517 kts | 118° |
| 2026-05-04 22:21 | 56.77228 | -108.10550 | 37182 ft | 517 kts | 118° |
| 2026-05-04 22:22 | 56.73431 | -107.99467 | 37173 ft | 517 kts | 118° |
| 2026-05-04 22:22 | 56.69615 | -107.88377 | 37167 ft | 517 kts | 118° |
| 2026-05-04 22:23 | 56.65939 | -107.77154 | 37168 ft | 516 kts | 116° |
| 2026-05-04 22:23 | 56.62387 | -107.65802 | 37180 ft | 516 kts | 116° |
| 2026-05-04 22:24 | 56.58812 | -107.54499 | 37158 ft | 515 kts | 116° |
| 2026-05-04 22:24 | 56.55220 | -107.43316 | 37131 ft | 515 kts | 117° |
| 2026-05-04 22:25 | 56.51582 | -107.32082 | 37132 ft | 515 kts | 117° |
| 2026-05-04 22:25 | 56.47951 | -107.20930 | 37127 ft | 515 kts | 117° |
| 2026-05-04 22:26 | 56.44301 | -107.09766 | 37132 ft | 515 kts | 117° |
| 2026-05-04 22:26 | 56.40647 | -106.98636 | 37117 ft | 516 kts | 117° |
| 2026-05-04 22:27 | 56.36975 | -106.87506 | 37126 ft | 516 kts | 117° |
| 2026-05-04 22:27 | 56.33303 | -106.76426 | 37117 ft | 516 kts | 117° |
| 2026-05-04 22:28 | 56.29624 | -106.65374 | 37106 ft | 516 kts | 117° |
| 2026-05-04 22:28 | 56.25913 | -106.54280 | 37108 ft | 516 kts | 117° |
| 2026-05-04 22:29 | 56.22221 | -106.43292 | 37092 ft | 516 kts | 117° |
| 2026-05-04 22:29 | 56.18501 | -106.32270 | 37092 ft | 516 kts | 118° |
| 2026-05-04 22:30 | 56.14752 | -106.21217 | 37095 ft | 516 kts | 118° |
| 2026-05-04 22:30 | 56.11027 | -106.10278 | 37100 ft | 516 kts | 118° |
| 2026-05-04 22:31 | 56.07220 | -105.99362 | 37089 ft | 516 kts | 121° |
| 2026-05-04 22:31 | 56.03097 | -105.88807 | 37086 ft | 518 kts | 122° |
| 2026-05-04 22:32 | 55.98913 | -105.78348 | 37073 ft | 518 kts | 122° |
| 2026-05-04 22:32 | 55.94779 | -105.67897 | 37070 ft | 517 kts | 122° |
| 2026-05-04 22:33 | 55.90647 | -105.57390 | 37067 ft | 517 kts | 122° |
| 2026-05-04 22:33 | 55.86500 | -105.46863 | 37066 ft | 517 kts | 122° |
| 2026-05-04 22:34 | 55.82366 | -105.36418 | 37086 ft | 518 kts | 122° |
| 2026-05-04 22:34 | 55.78212 | -105.25974 | 37056 ft | 517 kts | 122° |
| 2026-05-04 22:35 | 55.74055 | -105.15570 | 37059 ft | 517 kts | 122° |
| 2026-05-04 22:35 | 55.69887 | -105.05183 | 37054 ft | 517 kts | 122° |
| 2026-05-04 22:36 | 55.65700 | -104.94791 | 37062 ft | 517 kts | 122° |
| 2026-05-04 22:36 | 55.61527 | -104.84477 | 37047 ft | 517 kts | 122° |
| 2026-05-04 22:37 | 55.57324 | -104.74132 | 37042 ft | 517 kts | 123° |
| 2026-05-04 22:37 | 55.53119 | -104.63827 | 37041 ft | 517 kts | 123° |
| 2026-05-04 22:38 | 55.48900 | -104.53529 | 37028 ft | 516 kts | 123° |
| 2026-05-04 22:38 | 55.44702 | -104.43329 | 37027 ft | 516 kts | 123° |
| 2026-05-04 22:39 | 55.40472 | -104.33091 | 37027 ft | 516 kts | 123° |
| 2026-05-04 22:39 | 55.36233 | -104.22876 | 37015 ft | 517 kts | 123° |
| 2026-05-04 22:40 | 55.32004 | -104.12726 | 37015 ft | 517 kts | 123° |
| 2026-05-04 22:40 | 55.27743 | -104.02540 | 37002 ft | 517 kts | 123° |
| 2026-05-04 22:41 | 55.23463 | -103.92351 | 37004 ft | 517 kts | 123° |
| 2026-05-04 22:41 | 55.19216 | -103.82280 | 36998 ft | 516 kts | 123° |
| 2026-05-04 22:42 | 55.14944 | -103.72193 | 36990 ft | 516 kts | 124° |
| 2026-05-04 22:42 | 55.10643 | -103.62082 | 36986 ft | 516 kts | 124° |
| 2026-05-04 22:43 | 55.06381 | -103.52101 | 36982 ft | 516 kts | 124° |
| 2026-05-04 22:43 | 55.02076 | -103.42060 | 36990 ft | 516 kts | 124° |
| 2026-05-04 22:44 | 54.97769 | -103.32054 | 36982 ft | 516 kts | 124° |
| 2026-05-04 22:44 | 54.93471 | -103.22110 | 36975 ft | 516 kts | 124° |
| 2026-05-04 22:45 | 54.89139 | -103.12127 | 36981 ft | 516 kts | 124° |
| 2026-05-04 22:45 | 54.82649 | -102.97249 | 36979 ft | 514 kts | 124° |
| 2026-05-04 22:46 | 54.78305 | -102.87339 | 36969 ft | 515 kts | 124° |
| 2026-05-04 22:46 | 54.73982 | -102.77517 | 36969 ft | 515 kts | 124° |
| 2026-05-04 22:47 | 54.70365 | -102.69331 | 36969 ft | 515 kts | 125° |
| 2026-05-04 22:47 | 54.65260 | -102.57819 | 36967 ft | 515 kts | 125° |
| 2026-05-04 22:48 | 54.61632 | -102.49671 | 36963 ft | 515 kts | 125° |
| 2026-05-04 22:48 | 54.57248 | -102.39858 | 36965 ft | 515 kts | 125° |
| 2026-05-04 22:49 | 54.52887 | -102.30139 | 36959 ft | 514 kts | 125° |
| 2026-05-04 22:49 | 54.48489 | -102.20375 | 36958 ft | 514 kts | 125° |
| 2026-05-04 22:50 | 54.44106 | -102.10682 | 36952 ft | 514 kts | 125° |
| 2026-05-04 22:50 | 54.39732 | -102.01045 | 36946 ft | 514 kts | 126° |
| 2026-05-04 22:51 | 54.35327 | -101.91378 | 36942 ft | 515 kts | 126° |
| 2026-05-04 22:51 | 54.30915 | -101.81735 | 36944 ft | 515 kts | 126° |
| 2026-05-04 22:52 | 54.26471 | -101.72059 | 36933 ft | 514 kts | 126° |
| 2026-05-04 22:52 | 54.22043 | -101.62456 | 36934 ft | 514 kts | 126° |
| 2026-05-04 22:53 | 54.17606 | -101.52868 | 36931 ft | 514 kts | 126° |
| 2026-05-04 22:53 | 54.13177 | -101.43337 | 36920 ft | 514 kts | 126° |
| 2026-05-04 22:54 | 54.08713 | -101.33766 | 36918 ft | 514 kts | 126° |
| 2026-05-04 22:54 | 54.04285 | -101.24310 | 36881 ft | 515 kts | 126° |
| 2026-05-04 22:55 | 53.99792 | -101.14749 | 36876 ft | 515 kts | 127° |
| 2026-05-04 22:55 | 53.95354 | -101.05265 | 36891 ft | 514 kts | 125° |
| 2026-05-04 22:56 | 53.91177 | -100.95442 | 36879 ft | 513 kts | 123° |
| 2026-05-04 22:56 | 53.87072 | -100.85539 | 36882 ft | 513 kts | 123° |
| 2026-05-04 22:57 | 53.82933 | -100.75733 | 36888 ft | 513 kts | 123° |
| 2026-05-04 22:57 | 53.78747 | -100.65960 | 36888 ft | 513 kts | 124° |
| 2026-05-04 22:58 | 53.74532 | -100.56185 | 36914 ft | 514 kts | 124° |
| 2026-05-04 22:58 | 53.70305 | -100.46419 | 36896 ft | 514 kts | 124° |
| 2026-05-04 22:59 | 53.66072 | -100.36669 | 36886 ft | 513 kts | 124° |
| 2026-05-04 22:59 | 53.61871 | -100.27032 | 36886 ft | 514 kts | 124° |
| 2026-05-04 23:00 | 53.57626 | -100.17329 | 36889 ft | 514 kts | 124° |
| 2026-05-04 23:00 | 53.53378 | -100.07657 | 36890 ft | 514 kts | 124° |
| 2026-05-04 23:01 | 53.49115 | -99.97973 | 36886 ft | 514 kts | 124° |
| 2026-05-04 23:01 | 53.45263 | -99.87917 | 36875 ft | 513 kts | 118° |
| 2026-05-04 23:02 | 53.41618 | -99.77607 | 36875 ft | 513 kts | 118° |
| 2026-05-04 23:02 | 53.37911 | -99.67362 | 36864 ft | 513 kts | 120° |
| 2026-05-04 23:03 | 53.34151 | -99.57235 | 36862 ft | 514 kts | 120° |
| 2026-05-04 23:03 | 53.30342 | -99.47089 | 36853 ft | 514 kts | 120° |
| 2026-05-04 23:04 | 53.26540 | -99.37005 | 36854 ft | 514 kts | 120° |
| 2026-05-04 23:04 | 53.22714 | -99.26887 | 36854 ft | 514 kts | 120° |
| 2026-05-04 23:05 | 53.18894 | -99.16821 | 36848 ft | 513 kts | 120° |
| 2026-05-04 23:05 | 53.15088 | -99.06830 | 36848 ft | 513 kts | 121° |
| 2026-05-04 23:06 | 53.11247 | -98.96790 | 36845 ft | 513 kts | 121° |
| 2026-05-04 23:06 | 53.07395 | -98.86759 | 36848 ft | 513 kts | 121° |
| 2026-05-04 23:07 | 53.03539 | -98.76758 | 36848 ft | 513 kts | 121° |
| 2026-05-04 23:07 | 52.99690 | -98.66815 | 36848 ft | 513 kts | 121° |
| 2026-05-04 23:08 | 52.95815 | -98.56844 | 36848 ft | 513 kts | 121° |
| 2026-05-04 23:08 | 52.91937 | -98.46902 | 36848 ft | 513 kts | 121° |
| 2026-05-04 23:09 | 52.88063 | -98.37011 | 36849 ft | 514 kts | 121° |
| 2026-05-04 23:09 | 52.84158 | -98.27081 | 36849 ft | 514 kts | 121° |
| 2026-05-04 23:10 | 52.80248 | -98.17177 | 36848 ft | 514 kts | 121° |
| 2026-05-04 23:10 | 52.76355 | -98.07355 | 36849 ft | 514 kts | 121° |
| 2026-05-04 23:11 | 52.72411 | -97.97447 | 36841 ft | 516 kts | 122° |
| 2026-05-04 23:11 | 52.68468 | -97.87571 | 36841 ft | 518 kts | 121° |
| 2026-05-04 23:12 | 52.64488 | -97.77641 | 36840 ft | 519 kts | 122° |
| 2026-05-04 23:12 | 52.60527 | -97.67802 | 36840 ft | 517 kts | 122° |
| 2026-05-04 23:13 | 52.56536 | -97.57926 | 36830 ft | 516 kts | 122° |
| 2026-05-04 23:13 | 52.52569 | -97.48148 | 36838 ft | 516 kts | 122° |
| 2026-05-04 23:14 | 52.48566 | -97.38316 | 36816 ft | 518 kts | 122° |
| 2026-05-04 23:14 | 52.44565 | -97.28521 | 36816 ft | 520 kts | 122° |
| 2026-05-04 23:15 | 52.40525 | -97.18682 | 36821 ft | 519 kts | 123° |
| 2026-05-04 23:15 | 52.36492 | -97.08894 | 36798 ft | 519 kts | 122° |
| 2026-05-04 23:16 | 52.32446 | -96.99112 | 36799 ft | 517 kts | 123° |
| 2026-05-04 23:16 | 52.28423 | -96.89406 | 36798 ft | 518 kts | 123° |
| 2026-05-04 23:17 | 52.24391 | -96.79730 | 36800 ft | 517 kts | 123° |
| 2026-05-04 23:17 | 52.20324 | -96.70012 | 36791 ft | 519 kts | 123° |
| 2026-05-04 23:18 | 52.16239 | -96.60284 | 36795 ft | 517 kts | 123° |
| 2026-05-04 23:18 | 52.12169 | -96.50629 | 36792 ft | 516 kts | 123° |
| 2026-05-04 23:19 | 52.08112 | -96.41035 | 36779 ft | 518 kts | 123° |
| 2026-05-04 23:19 | 52.04016 | -96.31385 | 36779 ft | 517 kts | 123° |
| 2026-05-04 23:20 | 51.99930 | -96.21799 | 36766 ft | 518 kts | 124° |
| 2026-05-04 23:20 | 51.95820 | -96.12194 | 36765 ft | 517 kts | 124° |
| 2026-05-04 23:21 | 51.91722 | -96.02653 | 36755 ft | 517 kts | 124° |
| 2026-05-04 23:21 | 51.87624 | -95.93143 | 36751 ft | 517 kts | 124° |
| 2026-05-04 23:22 | 51.83469 | -95.83538 | 36753 ft | 519 kts | 124° |
| 2026-05-04 23:22 | 51.79328 | -95.74000 | 36743 ft | 518 kts | 124° |
| 2026-05-04 23:23 | 51.75197 | -95.64521 | 36741 ft | 517 kts | 124° |
| 2026-05-04 23:23 | 51.71042 | -95.55023 | 36738 ft | 517 kts | 124° |
| 2026-05-04 23:24 | 51.66893 | -95.45570 | 36737 ft | 517 kts | 125° |
| 2026-05-04 23:24 | 51.62720 | -95.36100 | 36730 ft | 519 kts | 125° |
| 2026-05-04 23:25 | 51.58556 | -95.26685 | 36732 ft | 519 kts | 125° |
| 2026-05-04 23:25 | 51.54368 | -95.17248 | 36727 ft | 519 kts | 125° |
| 2026-05-04 23:26 | 51.50156 | -95.07797 | 36723 ft | 518 kts | 125° |
| 2026-05-04 23:26 | 51.45954 | -94.98400 | 36709 ft | 519 kts | 126° |
| 2026-05-04 23:27 | 51.41749 | -94.89028 | 36716 ft | 520 kts | 126° |
| 2026-05-04 23:27 | 51.37532 | -94.79662 | 36715 ft | 520 kts | 126° |
| 2026-05-04 23:28 | 51.33286 | -94.70266 | 36708 ft | 520 kts | 126° |
| 2026-05-04 23:28 | 51.29043 | -94.60914 | 36708 ft | 520 kts | 126° |
| 2026-05-04 23:29 | 51.24796 | -94.51586 | 36708 ft | 521 kts | 126° |
| 2026-05-04 23:29 | 51.20522 | -94.42230 | 36709 ft | 522 kts | 127° |
| 2026-05-04 23:30 | 51.16229 | -94.32869 | 36698 ft | 522 kts | 127° |
| 2026-05-04 23:30 | 51.11938 | -94.23545 | 36678 ft | 521 kts | 127° |
| 2026-05-04 23:31 | 51.07667 | -94.14297 | 36657 ft | 521 kts | 127° |
| 2026-05-04 23:31 | 51.03354 | -94.04993 | 36645 ft | 522 kts | 127° |
| 2026-05-04 23:32 | 50.99039 | -93.95715 | 36633 ft | 522 kts | 127° |
| 2026-05-04 23:32 | 50.94721 | -93.86465 | 36634 ft | 521 kts | 127° |
| 2026-05-04 23:33 | 50.90422 | -93.77288 | 36641 ft | 522 kts | 127° |
| 2026-05-04 23:33 | 50.86079 | -93.68048 | 36662 ft | 523 kts | 127° |
| 2026-05-04 23:34 | 50.81730 | -93.58829 | 36647 ft | 522 kts | 128° |
| 2026-05-04 23:34 | 50.77398 | -93.49679 | 36650 ft | 522 kts | 128° |
| 2026-05-04 23:35 | 50.73033 | -93.40493 | 36648 ft | 522 kts | 128° |
| 2026-05-04 23:35 | 50.69405 | -93.32883 | 36639 ft | 523 kts | 128° |
| 2026-05-04 23:36 | 50.64290 | -93.22188 | 36638 ft | 522 kts | 128° |
| 2026-05-04 23:36 | 50.60625 | -93.14553 | 36632 ft | 522 kts | 128° |
| 2026-05-04 23:37 | 50.56242 | -93.05451 | 36636 ft | 523 kts | 128° |
| 2026-05-04 23:37 | 50.51846 | -92.96353 | 36625 ft | 523 kts | 128° |
| 2026-05-04 23:38 | 50.47456 | -92.87300 | 36626 ft | 523 kts | 128° |
| 2026-05-04 23:38 | 50.43034 | -92.78212 | 36627 ft | 523 kts | 128° |
| 2026-05-04 23:39 | 50.38626 | -92.69183 | 36607 ft | 522 kts | 129° |
| 2026-05-04 23:39 | 50.34192 | -92.60133 | 36620 ft | 523 kts | 129° |
| 2026-05-04 23:40 | 50.29767 | -92.51134 | 36614 ft | 524 kts | 129° |
| 2026-05-04 23:40 | 50.25335 | -92.42150 | 36614 ft | 523 kts | 129° |
| 2026-05-04 23:41 | 50.20856 | -92.33101 | 36601 ft | 523 kts | 129° |
| 2026-05-04 23:41 | 50.16398 | -92.24124 | 36580 ft | 523 kts | 129° |
| 2026-05-04 23:42 | 50.11950 | -92.15201 | 36579 ft | 524 kts | 129° |
| 2026-05-04 23:42 | 50.07475 | -92.06252 | 36574 ft | 524 kts | 129° |
| 2026-05-04 23:43 | 50.02972 | -91.97281 | 36572 ft | 524 kts | 129° |
| 2026-05-04 23:43 | 49.98486 | -91.88372 | 36575 ft | 524 kts | 129° |
| 2026-05-04 23:44 | 49.94005 | -91.79502 | 36574 ft | 524 kts | 130° |
| 2026-05-04 23:44 | 49.89493 | -91.70600 | 36578 ft | 524 kts | 130° |
| 2026-05-04 23:45 | 49.84987 | -91.61743 | 36567 ft | 524 kts | 130° |
| 2026-05-04 23:45 | 49.80460 | -91.52874 | 36567 ft | 524 kts | 130° |
| 2026-05-04 23:46 | 49.75931 | -91.44028 | 36551 ft | 524 kts | 130° |
| 2026-05-04 23:46 | 49.71417 | -91.35243 | 36549 ft | 524 kts | 130° |
| 2026-05-04 23:47 | 49.66875 | -91.26431 | 36554 ft | 524 kts | 130° |
| 2026-05-04 23:47 | 49.62319 | -91.17622 | 36542 ft | 524 kts | 130° |
| 2026-05-04 23:48 | 49.57789 | -91.08894 | 36542 ft | 524 kts | 131° |
| 2026-05-04 23:48 | 49.53223 | -91.00125 | 36528 ft | 524 kts | 131° |
| 2026-05-04 23:49 | 49.48655 | -90.91382 | 36529 ft | 524 kts | 131° |
| 2026-05-04 23:49 | 49.44076 | -90.82643 | 36514 ft | 524 kts | 131° |
| 2026-05-04 23:50 | 49.39525 | -90.73990 | 36514 ft | 523 kts | 131° |
| 2026-05-04 23:50 | 49.34930 | -90.65282 | 36498 ft | 523 kts | 131° |
| 2026-05-04 23:51 | 49.30368 | -90.56662 | 36500 ft | 523 kts | 131° |
| 2026-05-04 23:51 | 49.25760 | -90.47985 | 36499 ft | 524 kts | 131° |
| 2026-05-04 23:52 | 49.21162 | -90.39356 | 36502 ft | 523 kts | 131° |
| 2026-05-04 23:52 | 49.16563 | -90.30753 | 36480 ft | 523 kts | 132° |
| 2026-05-04 23:53 | 49.11949 | -90.22151 | 36489 ft | 523 kts | 132° |
| 2026-05-04 23:53 | 49.07325 | -90.13556 | 36473 ft | 523 kts | 132° |
| 2026-05-04 23:54 | 49.02726 | -90.05035 | 36517 ft | 524 kts | 132° |
| 2026-05-04 23:54 | 49.00431 | -90.00642 | 36801 ft | 525 kts | 128° |
| 2026-05-04 23:54 | 48.98412 | -89.96053 | 37212 ft | 522 kts | 125° |
| 2026-05-04 23:55 | 48.96470 | -89.91446 | 37644 ft | 519 kts | 124° |
| 2026-05-04 23:55 | 48.94533 | -89.86765 | 37954 ft | 518 kts | 124° |
| 2026-05-04 23:55 | 48.90713 | -89.77446 | 38396 ft | 518 kts | 124° |
| 2026-05-04 23:56 | 48.88816 | -89.72829 | 38471 ft | 521 kts | 124° |
| 2026-05-04 23:56 | 48.84956 | -89.63478 | 38470 ft | 521 kts | 124° |
| 2026-05-04 23:57 | 48.81095 | -89.54179 | 38468 ft | 521 kts | 124° |
| 2026-05-04 23:57 | 48.77233 | -89.44919 | 38465 ft | 521 kts | 124° |
| 2026-05-04 23:58 | 48.73355 | -89.35651 | 38462 ft | 522 kts | 124° |
| 2026-05-04 23:58 | 48.69463 | -89.26380 | 38454 ft | 521 kts | 125° |
| 2026-05-04 23:59 | 48.65564 | -89.17124 | 38456 ft | 521 kts | 125° |
| 2026-05-04 23:59 | 48.61646 | -89.07855 | 38442 ft | 521 kts | 125° |
| 2026-05-05 00:00 | 48.57760 | -88.98693 | 38442 ft | 520 kts | 126° |
| 2026-05-05 00:00 | 48.53844 | -88.89495 | 38434 ft | 521 kts | 125° |
| 2026-05-05 00:01 | 48.49900 | -88.80264 | 38434 ft | 521 kts | 126° |
| 2026-05-05 00:01 | 48.45991 | -88.71141 | 38434 ft | 521 kts | 126° |
| 2026-05-05 00:02 | 48.42041 | -88.61956 | 38424 ft | 521 kts | 126° |
| 2026-05-05 00:02 | 48.38092 | -88.52804 | 38443 ft | 521 kts | 126° |
| 2026-05-05 00:03 | 48.34151 | -88.43699 | 38445 ft | 521 kts | 126° |
| 2026-05-05 00:03 | 48.30181 | -88.34561 | 38445 ft | 521 kts | 126° |
| 2026-05-05 00:04 | 48.26203 | -88.25433 | 38444 ft | 521 kts | 126° |
| 2026-05-05 00:04 | 48.22253 | -88.16401 | 38445 ft | 520 kts | 126° |
| 2026-05-05 00:05 | 48.18278 | -88.07341 | 38463 ft | 520 kts | 126° |
| 2026-05-05 00:05 | 48.14290 | -87.98285 | 38456 ft | 521 kts | 126° |
| 2026-05-05 00:06 | 48.10307 | -87.89269 | 38460 ft | 521 kts | 126° |
| 2026-05-05 00:06 | 48.06304 | -87.80234 | 38465 ft | 521 kts | 126° |
| 2026-05-05 00:07 | 48.02288 | -87.71204 | 38476 ft | 521 kts | 126° |
| 2026-05-05 00:07 | 47.98262 | -87.62180 | 38462 ft | 521 kts | 127° |
| 2026-05-05 00:08 | 47.94229 | -87.53171 | 38475 ft | 522 kts | 127° |
| 2026-05-05 00:08 | 47.90201 | -87.44202 | 38463 ft | 522 kts | 127° |
| 2026-05-05 00:09 | 47.86143 | -87.35196 | 38469 ft | 522 kts | 127° |
| 2026-05-05 00:09 | 47.82093 | -87.26239 | 38473 ft | 522 kts | 127° |
| 2026-05-05 00:10 | 47.78048 | -87.17322 | 38477 ft | 522 kts | 127° |
| 2026-05-05 00:10 | 47.73980 | -87.08381 | 38482 ft | 523 kts | 127° |
| 2026-05-05 00:11 | 47.69889 | -86.99421 | 38482 ft | 524 kts | 127° |
| 2026-05-05 00:11 | 47.65796 | -86.90488 | 38493 ft | 525 kts | 127° |
| 2026-05-05 00:12 | 47.61676 | -86.81519 | 38491 ft | 525 kts | 128° |
| 2026-05-05 00:12 | 47.57573 | -86.72619 | 38497 ft | 525 kts | 128° |
| 2026-05-05 00:13 | 47.53443 | -86.63690 | 38477 ft | 525 kts | 128° |
| 2026-05-05 00:13 | 47.49315 | -86.54795 | 38500 ft | 525 kts | 128° |
| 2026-05-05 00:14 | 47.45167 | -86.45885 | 38497 ft | 525 kts | 128° |
| 2026-05-05 00:14 | 47.41034 | -86.37035 | 38503 ft | 525 kts | 128° |
| 2026-05-05 00:15 | 47.36865 | -86.28138 | 38497 ft | 525 kts | 128° |
| 2026-05-05 00:15 | 47.32730 | -86.19342 | 38500 ft | 525 kts | 128° |
| 2026-05-05 00:16 | 47.28554 | -86.10489 | 38504 ft | 526 kts | 128° |
| 2026-05-05 00:16 | 47.24375 | -86.01655 | 38487 ft | 526 kts | 128° |
| 2026-05-05 00:17 | 47.20170 | -85.92795 | 38499 ft | 527 kts | 128° |
| 2026-05-05 00:17 | 47.15962 | -85.83958 | 38484 ft | 526 kts | 128° |
| 2026-05-05 00:18 | 47.11771 | -85.75182 | 38504 ft | 524 kts | 128° |
| 2026-05-05 00:18 | 47.07601 | -85.66479 | 38505 ft | 524 kts | 128° |
| 2026-05-05 00:19 | 47.03384 | -85.57708 | 38520 ft | 524 kts | 129° |
| 2026-05-05 00:19 | 46.99194 | -85.49020 | 38520 ft | 524 kts | 129° |
| 2026-05-05 00:20 | 46.94965 | -85.40277 | 38528 ft | 524 kts | 129° |
| 2026-05-05 00:20 | 46.90761 | -85.31613 | 38528 ft | 524 kts | 129° |
| 2026-05-05 00:21 | 46.86524 | -85.22908 | 38513 ft | 524 kts | 129° |
| 2026-05-05 00:21 | 46.82268 | -85.14195 | 38537 ft | 527 kts | 129° |
| 2026-05-05 00:22 | 46.78030 | -85.05540 | 38536 ft | 527 kts | 129° |
| 2026-05-05 00:22 | 46.73767 | -84.96863 | 38537 ft | 527 kts | 129° |
| 2026-05-05 00:23 | 46.69487 | -84.88181 | 38539 ft | 526 kts | 129° |
| 2026-05-05 00:23 | 46.65220 | -84.79550 | 38532 ft | 526 kts | 130° |
| 2026-05-05 00:24 | 46.60923 | -84.70887 | 38527 ft | 526 kts | 130° |
| 2026-05-05 00:24 | 46.56622 | -84.62241 | 38524 ft | 526 kts | 130° |
| 2026-05-05 00:25 | 46.52359 | -84.53701 | 38522 ft | 526 kts | 130° |
| 2026-05-05 00:25 | 46.48043 | -84.45078 | 38523 ft | 526 kts | 130° |
| 2026-05-05 00:26 | 46.43735 | -84.36499 | 38497 ft | 526 kts | 130° |
| 2026-05-05 00:26 | 46.39176 | -84.28298 | 38521 ft | 521 kts | 136° |
| 2026-05-05 00:27 | 46.34329 | -84.20548 | 38504 ft | 521 kts | 137° |
| 2026-05-05 00:27 | 46.30213 | -84.14102 | 38517 ft | 520 kts | 137° |
| 2026-05-05 00:28 | 46.24505 | -84.05188 | 38513 ft | 520 kts | 137° |
| 2026-05-05 00:28 | 46.20411 | -83.98792 | 38491 ft | 520 kts | 138° |
| 2026-05-05 00:29 | 46.15488 | -83.91112 | 38521 ft | 519 kts | 138° |
| 2026-05-05 00:29 | 46.10594 | -83.83497 | 38530 ft | 519 kts | 138° |
| 2026-05-05 00:30 | 46.05678 | -83.75870 | 38533 ft | 519 kts | 138° |
| 2026-05-05 00:30 | 46.00765 | -83.68270 | 38533 ft | 519 kts | 138° |
| 2026-05-05 00:31 | 45.95837 | -83.60666 | 38531 ft | 519 kts | 138° |
| 2026-05-05 00:31 | 45.90927 | -83.53111 | 38522 ft | 518 kts | 138° |
| 2026-05-05 00:32 | 45.85997 | -83.45547 | 38510 ft | 518 kts | 138° |
| 2026-05-05 00:32 | 45.81062 | -83.37998 | 38495 ft | 518 kts | 139° |
| 2026-05-05 00:33 | 45.76142 | -83.30491 | 38479 ft | 517 kts | 139° |
| 2026-05-05 00:33 | 45.71214 | -83.22993 | 38503 ft | 516 kts | 139° |
| 2026-05-05 00:34 | 45.66315 | -83.15560 | 38495 ft | 515 kts | 139° |
| 2026-05-05 00:34 | 45.61398 | -83.08122 | 38493 ft | 515 kts | 139° |
| 2026-05-05 00:35 | 45.56469 | -83.00685 | 38502 ft | 515 kts | 139° |
| 2026-05-05 00:35 | 45.51518 | -82.93235 | 38494 ft | 516 kts | 139° |
| 2026-05-05 00:36 | 45.46599 | -82.85853 | 38498 ft | 516 kts | 139° |
| 2026-05-05 00:36 | 45.41659 | -82.78459 | 38501 ft | 516 kts | 139° |
| 2026-05-05 00:37 | 45.36693 | -82.71047 | 38498 ft | 516 kts | 139° |
| 2026-05-05 00:37 | 45.31748 | -82.63686 | 38490 ft | 518 kts | 139° |
| 2026-05-05 00:38 | 45.26757 | -82.56280 | 38498 ft | 520 kts | 139° |
| 2026-05-05 00:38 | 45.22025 | -82.48473 | 38495 ft | 528 kts | 127° |
| 2026-05-05 00:38 | 45.20225 | -82.43861 | 38489 ft | 533 kts | 116° |
| 2026-05-05 00:39 | 45.18901 | -82.38961 | 38492 ft | 535 kts | 112° |
| 2026-05-05 00:39 | 45.16611 | -82.28892 | 38490 ft | 537 kts | 109° |
| 2026-05-05 00:40 | 45.14449 | -82.18817 | 38497 ft | 536 kts | 109° |
| 2026-05-05 00:40 | 45.12244 | -82.08725 | 38495 ft | 535 kts | 110° |
| 2026-05-05 00:41 | 45.10005 | -81.98688 | 38486 ft | 535 kts | 110° |
| 2026-05-05 00:41 | 45.07755 | -81.88700 | 38494 ft | 533 kts | 110° |
| 2026-05-05 00:42 | 45.05500 | -81.78740 | 38503 ft | 533 kts | 110° |
| 2026-05-05 00:42 | 45.03229 | -81.68750 | 38504 ft | 533 kts | 110° |
| 2026-05-05 00:43 | 45.00950 | -81.58766 | 38504 ft | 533 kts | 110° |
| 2026-05-05 00:43 | 44.98666 | -81.48801 | 38517 ft | 532 kts | 111° |
| 2026-05-05 00:44 | 44.96391 | -81.38926 | 38521 ft | 531 kts | 111° |
| 2026-05-05 00:44 | 44.94088 | -81.28972 | 38523 ft | 531 kts | 111° |
| 2026-05-05 00:45 | 44.91791 | -81.19094 | 38515 ft | 531 kts | 111° |
| 2026-05-05 00:45 | 44.89481 | -81.09199 | 38523 ft | 529 kts | 111° |
| 2026-05-05 00:46 | 44.87168 | -80.99337 | 38528 ft | 529 kts | 111° |
| 2026-05-05 00:46 | 44.84853 | -80.89512 | 38530 ft | 529 kts | 111° |
| 2026-05-05 00:47 | 44.82538 | -80.79730 | 38544 ft | 528 kts | 111° |
| 2026-05-05 00:47 | 44.80210 | -80.69933 | 38546 ft | 527 kts | 111° |
| 2026-05-05 00:48 | 44.77886 | -80.60198 | 38561 ft | 526 kts | 111° |
| 2026-05-05 00:48 | 44.75549 | -80.50452 | 38565 ft | 526 kts | 111° |
| 2026-05-05 00:49 | 44.73199 | -80.40696 | 38575 ft | 527 kts | 111° |
| 2026-05-05 00:49 | 44.70830 | -80.30903 | 38576 ft | 527 kts | 111° |
| 2026-05-05 00:50 | 44.68458 | -80.21137 | 38582 ft | 527 kts | 111° |
| 2026-05-05 00:50 | 44.66089 | -80.11424 | 38589 ft | 527 kts | 111° |
| 2026-05-05 00:51 | 44.63693 | -80.01647 | 38597 ft | 530 kts | 111° |
| 2026-05-05 00:51 | 44.61291 | -79.91887 | 38601 ft | 530 kts | 111° |
| 2026-05-05 00:52 | 44.58879 | -79.82125 | 38606 ft | 530 kts | 111° |
| 2026-05-05 00:52 | 44.56415 | -79.72342 | 38609 ft | 530 kts | 112° |
| 2026-05-05 00:53 | 44.53878 | -79.62663 | 38617 ft | 530 kts | 112° |
| 2026-05-05 00:53 | 44.51325 | -79.52989 | 38625 ft | 530 kts | 112° |
| 2026-05-05 00:54 | 44.48775 | -79.43309 | 38631 ft | 529 kts | 112° |
| 2026-05-05 00:54 | 44.46234 | -79.33674 | 38636 ft | 526 kts | 112° |
| 2026-05-05 00:55 | 44.43692 | -79.24068 | 38634 ft | 525 kts | 112° |
| 2026-05-05 00:55 | 44.41159 | -79.14541 | 38635 ft | 525 kts | 112° |
| 2026-05-05 00:56 | 44.38593 | -79.04931 | 38625 ft | 525 kts | 112° |
| 2026-05-05 00:56 | 44.36042 | -78.95411 | 38638 ft | 524 kts | 112° |
| 2026-05-05 00:57 | 44.33465 | -78.85836 | 38637 ft | 524 kts | 112° |
| 2026-05-05 00:57 | 44.30902 | -78.76351 | 38643 ft | 524 kts | 112° |
| 2026-05-05 00:58 | 44.28308 | -78.66786 | 38651 ft | 524 kts | 112° |
| 2026-05-05 00:58 | 44.25719 | -78.57282 | 38659 ft | 525 kts | 112° |
| 2026-05-05 00:59 | 44.23116 | -78.47762 | 38656 ft | 525 kts | 112° |
| 2026-05-05 00:59 | 44.20511 | -78.38268 | 38656 ft | 525 kts | 112° |
| 2026-05-05 01:00 | 44.17890 | -78.28755 | 38667 ft | 525 kts | 113° |
| 2026-05-05 01:00 | 44.15268 | -78.19275 | 38664 ft | 525 kts | 113° |
| 2026-05-05 01:01 | 44.12631 | -78.09779 | 38659 ft | 525 kts | 113° |
| 2026-05-05 01:01 | 44.09998 | -78.00334 | 38665 ft | 525 kts | 113° |
| 2026-05-05 01:02 | 44.07360 | -77.90908 | 38685 ft | 525 kts | 113° |
| 2026-05-05 01:02 | 44.04700 | -77.81438 | 38667 ft | 525 kts | 113° |
| 2026-05-05 01:03 | 44.02031 | -77.71975 | 38668 ft | 525 kts | 113° |
| 2026-05-05 01:03 | 43.99363 | -77.62548 | 38682 ft | 526 kts | 113° |
| 2026-05-05 01:04 | 43.96685 | -77.53125 | 38683 ft | 525 kts | 113° |
| 2026-05-05 01:04 | 43.92655 | -77.39007 | 38671 ft | 525 kts | 113° |
| 2026-05-05 01:05 | 43.89949 | -77.29571 | 38699 ft | 525 kts | 113° |
| 2026-05-05 01:05 | 43.87242 | -77.20170 | 38716 ft | 524 kts | 113° |
| 2026-05-05 01:06 | 43.84547 | -77.10845 | 38719 ft | 524 kts | 113° |
| 2026-05-05 01:06 | 43.81833 | -77.01489 | 38725 ft | 524 kts | 113° |
| 2026-05-05 01:07 | 43.79108 | -76.92131 | 38727 ft | 524 kts | 113° |
| 2026-05-05 01:07 | 43.76377 | -76.82785 | 38728 ft | 524 kts | 113° |
| 2026-05-05 01:08 | 43.73644 | -76.73468 | 38728 ft | 525 kts | 113° |
| 2026-05-05 01:08 | 43.70753 | -76.64158 | 38724 ft | 524 kts | 116° |
| 2026-05-05 01:09 | 43.67777 | -76.55061 | 38725 ft | 524 kts | 116° |
| 2026-05-05 01:09 | 43.64771 | -76.45821 | 38722 ft | 525 kts | 116° |
| 2026-05-05 01:10 | 43.61777 | -76.36615 | 38722 ft | 525 kts | 116° |
| 2026-05-05 01:10 | 43.58777 | -76.27411 | 38712 ft | 525 kts | 116° |
| 2026-05-05 01:11 | 43.55777 | -76.18237 | 38722 ft | 525 kts | 116° |
| 2026-05-05 01:11 | 43.52776 | -76.09090 | 38724 ft | 524 kts | 116° |
| 2026-05-05 01:12 | 43.49760 | -75.99931 | 38726 ft | 524 kts | 116° |
| 2026-05-05 01:12 | 43.46756 | -75.90838 | 38736 ft | 524 kts | 116° |
| 2026-05-05 01:13 | 43.43728 | -75.81701 | 38732 ft | 523 kts | 116° |
| 2026-05-05 01:13 | 43.40701 | -75.72600 | 38749 ft | 524 kts | 116° |
| 2026-05-05 01:14 | 43.37667 | -75.63509 | 38761 ft | 524 kts | 116° |
| 2026-05-05 01:14 | 43.34611 | -75.54384 | 38770 ft | 524 kts | 116° |
| 2026-05-05 01:15 | 43.32075 | -75.46832 | 38776 ft | 524 kts | 116° |
| 2026-05-05 01:15 | 43.29011 | -75.37739 | 38779 ft | 524 kts | 116° |
| 2026-05-05 01:16 | 43.25962 | -75.28719 | 38772 ft | 523 kts | 116° |
| 2026-05-05 01:16 | 43.22893 | -75.19671 | 38775 ft | 523 kts | 116° |
| 2026-05-05 01:17 | 43.19825 | -75.10655 | 38773 ft | 523 kts | 116° |
| 2026-05-05 01:17 | 43.16725 | -75.01575 | 38776 ft | 523 kts | 116° |
| 2026-05-05 01:18 | 43.13655 | -74.92614 | 38779 ft | 523 kts | 116° |
| 2026-05-05 01:18 | 43.10563 | -74.83618 | 38779 ft | 523 kts | 116° |
| 2026-05-05 01:19 | 43.07460 | -74.74620 | 38783 ft | 523 kts | 116° |
| 2026-05-05 01:19 | 43.04335 | -74.65585 | 38782 ft | 523 kts | 117° |
| 2026-05-05 01:20 | 43.01215 | -74.56597 | 38790 ft | 523 kts | 117° |
| 2026-05-05 01:20 | 42.98105 | -74.47669 | 38759 ft | 523 kts | 117° |
| 2026-05-05 01:21 | 42.96551 | -74.43216 | 38545 ft | 522 kts | 117° |
| 2026-05-05 01:21 | 42.94982 | -74.38728 | 38257 ft | 522 kts | 117° |
| 2026-05-05 01:21 | 42.93421 | -74.34272 | 37978 ft | 522 kts | 116° |
| 2026-05-05 01:21 | 42.91844 | -74.29777 | 37697 ft | 523 kts | 116° |
| 2026-05-05 01:22 | 42.90280 | -74.25327 | 37423 ft | 523 kts | 116° |
| 2026-05-05 01:22 | 42.88705 | -74.20851 | 37141 ft | 524 kts | 116° |
| 2026-05-05 01:22 | 42.87114 | -74.16338 | 36874 ft | 524 kts | 116° |
| 2026-05-05 01:22 | 42.85547 | -74.11898 | 36607 ft | 525 kts | 116° |
| 2026-05-05 01:23 | 42.83953 | -74.07391 | 36352 ft | 525 kts | 116° |
| 2026-05-05 01:23 | 42.82356 | -74.02884 | 36106 ft | 526 kts | 116° |
| 2026-05-05 01:23 | 42.80783 | -73.98449 | 35861 ft | 527 kts | 116° |
| 2026-05-05 01:23 | 42.79187 | -73.93958 | 35675 ft | 527 kts | 116° |
| 2026-05-05 01:24 | 42.77577 | -73.89433 | 35485 ft | 528 kts | 116° |
| 2026-05-05 01:24 | 42.76073 | -73.84908 | 35302 ft | 528 kts | 110° |
| 2026-05-05 01:24 | 42.75040 | -73.80105 | 35137 ft | 526 kts | 99° |
| 2026-05-05 01:24 | 42.74643 | -73.75147 | 34984 ft | 523 kts | 89° |
| 2026-05-05 01:25 | 42.74581 | -73.70245 | 34839 ft | 523 kts | 88° |
| 2026-05-05 01:25 | 42.74561 | -73.65263 | 34690 ft | 523 kts | 88° |
| 2026-05-05 01:25 | 42.74538 | -73.60365 | 34545 ft | 522 kts | 87° |
| 2026-05-05 01:25 | 42.74507 | -73.55438 | 34416 ft | 522 kts | 87° |
| 2026-05-05 01:26 | 42.74470 | -73.50455 | 34299 ft | 522 kts | 88° |
| 2026-05-05 01:26 | 42.74430 | -73.45554 | 34203 ft | 522 kts | 87° |
| 2026-05-05 01:26 | 42.74387 | -73.40645 | 34081 ft | 522 kts | 87° |
| 2026-05-05 01:26 | 42.74341 | -73.35724 | 33966 ft | 521 kts | 88° |
| 2026-05-05 01:27 | 42.74293 | -73.30752 | 33847 ft | 521 kts | 87° |
| 2026-05-05 01:27 | 42.74242 | -73.25846 | 33705 ft | 520 kts | 87° |
| 2026-05-05 01:27 | 42.74190 | -73.20962 | 33551 ft | 520 kts | 87° |
| 2026-05-05 01:27 | 42.74135 | -73.16036 | 33148 ft | 512 kts | 88° |
| 2026-05-05 01:28 | 42.73999 | -73.11276 | 31983 ft | 504 kts | 92° |
| 2026-05-05 01:28 | 42.73552 | -73.06516 | 30363 ft | 508 kts | 97° |
| 2026-05-05 01:28 | 42.72997 | -73.01724 | 28654 ft | 510 kts | 97° |
| 2026-05-05 01:28 | 42.72437 | -72.96988 | 27903 ft | 513 kts | 98° |
| 2026-05-05 01:29 | 42.71873 | -72.92206 | 27456 ft | 507 kts | 97° |
| 2026-05-05 01:29 | 42.71316 | -72.87472 | 26883 ft | 502 kts | 98° |
| 2026-05-05 01:29 | 42.70772 | -72.82841 | 26307 ft | 497 kts | 98° |
| 2026-05-05 01:29 | 42.70226 | -72.78199 | 25728 ft | 493 kts | 98° |
| 2026-05-05 01:30 | 42.69690 | -72.73653 | 25145 ft | 489 kts | 98° |
| 2026-05-05 01:30 | 42.69149 | -72.69077 | 24587 ft | 485 kts | 98° |
| 2026-05-05 01:30 | 42.68612 | -72.64549 | 24110 ft | 485 kts | 98° |
| 2026-05-05 01:30 | 42.68077 | -72.60049 | 23672 ft | 485 kts | 98° |
| 2026-05-05 01:31 | 42.67540 | -72.55615 | 23421 ft | 473 kts | 98° |
| 2026-05-05 01:31 | 42.67000 | -72.51199 | 23112 ft | 457 kts | 99° |
| 2026-05-05 01:31 | 42.66493 | -72.47064 | 22507 ft | 438 kts | 99° |
| 2026-05-05 01:31 | 42.66001 | -72.43054 | 22127 ft | 417 kts | 99° |
| 2026-05-05 01:32 | 42.65528 | -72.39194 | 21881 ft | 420 kts | 99° |
| 2026-05-05 01:32 | 42.65044 | -72.35262 | 21428 ft | 416 kts | 99° |
| 2026-05-05 01:32 | 42.64569 | -72.31404 | 21073 ft | 414 kts | 99° |
| 2026-05-05 01:32 | 42.64114 | -72.27569 | 20466 ft | 414 kts | 99° |
| 2026-05-05 01:33 | 42.63668 | -72.23685 | 19875 ft | 414 kts | 99° |
| 2026-05-05 01:33 | 42.63224 | -72.19831 | 19398 ft | 411 kts | 99° |
| 2026-05-05 01:33 | 42.62784 | -72.16044 | 18920 ft | 408 kts | 99° |
| 2026-05-05 01:33 | 42.62339 | -72.12221 | 18442 ft | 405 kts | 99° |
| 2026-05-05 01:34 | 42.61902 | -72.08495 | 17989 ft | 401 kts | 99° |
| 2026-05-05 01:34 | 42.61462 | -72.04759 | 17521 ft | 397 kts | 99° |
| 2026-05-05 01:34 | 42.61027 | -72.01098 | 17063 ft | 393 kts | 100° |
| 2026-05-05 01:34 | 42.60572 | -71.97432 | 16632 ft | 391 kts | 100° |
| 2026-05-05 01:35 | 42.60114 | -71.93778 | 16191 ft | 389 kts | 100° |
| 2026-05-05 01:35 | 42.59664 | -71.90188 | 15743 ft | 387 kts | 100° |
| 2026-05-05 01:35 | 42.59215 | -71.86589 | 15306 ft | 384 kts | 100° |
| 2026-05-05 01:35 | 42.58772 | -71.83052 | 14876 ft | 381 kts | 99° |
| 2026-05-05 01:36 | 42.58315 | -71.79550 | 14443 ft | 378 kts | 102° |
| 2026-05-05 01:36 | 42.57753 | -71.76036 | 14016 ft | 376 kts | 103° |
| 2026-05-05 01:36 | 42.57190 | -71.72613 | 13570 ft | 373 kts | 102° |
| 2026-05-05 01:36 | 42.56630 | -71.69169 | 13122 ft | 370 kts | 102° |
| 2026-05-05 01:37 | 42.56184 | -71.66395 | 12925 ft | 361 kts | 102° |
| 2026-05-05 01:37 | 42.55691 | -71.63318 | 12672 ft | 354 kts | 102° |
| 2026-05-05 01:37 | 42.55167 | -71.60043 | 12259 ft | 352 kts | 102° |
| 2026-05-05 01:37 | 42.54625 | -71.56821 | 11738 ft | 351 kts | 105° |
| 2026-05-05 01:38 | 42.53967 | -71.53693 | 11457 ft | 342 kts | 107° |
| 2026-05-05 01:38 | 42.53305 | -71.50646 | 11236 ft | 332 kts | 107° |
| 2026-05-05 01:38 | 42.52667 | -71.47639 | 10915 ft | 326 kts | 105° |
| 2026-05-05 01:38 | 42.52368 | -71.44646 | 10558 ft | 315 kts | 89° |
| 2026-05-05 01:39 | 42.52398 | -71.41769 | 10128 ft | 302 kts | 86° |
| 2026-05-05 01:39 | 42.52478 | -71.38958 | 9660 ft | 292 kts | 86° |
| 2026-05-05 01:39 | 42.52564 | -71.36215 | 9260 ft | 289 kts | 86° |
| 2026-05-05 01:39 | 42.52652 | -71.33504 | 8954 ft | 299 kts | 86° |
| 2026-05-05 01:40 | 42.52754 | -71.30625 | 8641 ft | 307 kts | 86° |
| 2026-05-05 01:40 | 42.52862 | -71.27724 | 8329 ft | 307 kts | 86° |
| 2026-05-05 01:40 | 42.52968 | -71.24861 | 8019 ft | 303 kts | 86° |
| 2026-05-05 01:40 | 42.53077 | -71.22032 | 7735 ft | 296 kts | 86° |
| 2026-05-05 01:41 | 42.53187 | -71.19274 | 7485 ft | 288 kts | 86° |
| 2026-05-05 01:41 | 42.53317 | -71.16612 | 7232 ft | 281 kts | 82° |
| 2026-05-05 01:41 | 42.53953 | -71.14182 | 6991 ft | 267 kts | 52° |
| 2026-05-05 01:41 | 42.55154 | -71.12354 | 6800 ft | 258 kts | 38° |
| 2026-05-05 01:42 | 42.56489 | -71.10742 | 6617 ft | 258 kts | 36° |
| 2026-05-05 01:42 | 42.57859 | -71.09140 | 6371 ft | 258 kts | 36° |
| 2026-05-05 01:42 | 42.59224 | -71.07542 | 6082 ft | 258 kts | 36° |
| 2026-05-05 01:42 | 42.60380 | -71.05688 | 5769 ft | 262 kts | 60° |
| 2026-05-05 01:43 | 42.60803 | -71.03316 | 5504 ft | 257 kts | 92° |
| 2026-05-05 01:43 | 42.60452 | -71.01000 | 5259 ft | 251 kts | 112° |
| 2026-05-05 01:43 | 42.59828 | -70.98782 | 4996 ft | 250 kts | 115° |
| 2026-05-05 01:43 | 42.59180 | -70.96620 | 4693 ft | 248 kts | 116° |
| 2026-05-05 01:44 | 42.58531 | -70.94447 | 4369 ft | 247 kts | 116° |
| 2026-05-05 01:44 | 42.57746 | -70.92411 | 4081 ft | 239 kts | 136° |
| 2026-05-05 01:44 | 42.56454 | -70.91240 | 3937 ft | 219 kts | 173° |
| 2026-05-05 01:44 | 42.55008 | -70.91384 | 3935 ft | 203 kts | 205° |
| 2026-05-05 01:45 | 42.53726 | -70.92129 | 3931 ft | 206 kts | 209° |
| 2026-05-05 01:45 | 42.52353 | -70.92859 | 3932 ft | 214 kts | 203° |
| 2026-05-05 01:45 | 42.50941 | -70.93515 | 3796 ft | 211 kts | 204° |
| 2026-05-05 01:45 | 42.49605 | -70.94150 | 3390 ft | 200 kts | 204° |
| 2026-05-05 01:46 | 42.48341 | -70.94759 | 2879 ft | 189 kts | 205° |
| 2026-05-05 01:46 | 42.47120 | -70.95355 | 2289 ft | 181 kts | 204° |
| 2026-05-05 01:46 | 42.45984 | -70.95909 | 1967 ft | 168 kts | 204° |
| 2026-05-05 01:46 | 42.44889 | -70.96413 | 1588 ft | 161 kts | 202° |
| 2026-05-05 01:47 | 42.43884 | -70.96842 | 1390 ft | 143 kts | 204° |
| 2026-05-05 01:47 | 42.43026 | -70.97318 | 1217 ft | 127 kts | 209° |
| 2026-05-05 01:47 | 42.42227 | -70.97757 | 1033 ft | 122 kts | 198° |
| 2026-05-05 01:47 | 42.41404 | -70.98110 | 900 ft | 125 kts | 201° |
| 2026-05-05 01:48 | 42.40584 | -70.98521 | 705 ft | 126 kts | 203° |
| 2026-05-05 01:48 | 42.39765 | -70.98929 | 572 ft | 126 kts | 200° |
| 2026-05-05 01:48 | 42.38940 | -70.99343 | 392 ft | 124 kts | 198° |
| 2026-05-05 01:48 | 42.38120 | -70.99711 | 239 ft | 126 kts | 200° |
| 2026-05-05 01:49 | 42.37281 | -71.00123 | 47 ft | 130 kts | 202° |
| 2026-05-05 01:49 | 42.36521 | -71.00498 | 31 ft | 99 kts | 199° |
| 2026-05-05 01:49 | 42.36007 | -71.00744 | 33 ft | 62 kts | 200° |
| 2026-05-05 01:49 | 42.35693 | -71.00898 | 31 ft | 22 kts | 200° |
| 2026-05-05 01:50 | 42.35633 | -71.00993 | 31 ft | 14 kts | 257° |
| 2026-05-05 01:50 | 42.35652 | -71.01127 | 31 ft | 15 kts | 295° |
| 2026-05-05 01:50 | 42.35715 | -71.01257 | 31 ft | 18 kts | 305° |
| 2026-05-05 01:50 | 42.35770 | -71.01417 | 31 ft | 20 kts | 290° |
| 2026-05-05 01:51 | 42.35825 | -71.01567 | 31 ft | 8 kts | 329° |
| 2026-05-05 01:51 | 42.35866 | -71.01557 | 31 ft | 7 kts | 15° |
| 2026-05-05 01:51 | 42.35939 | -71.01526 | 31 ft | 15 kts | 19° |
| 2026-05-05 01:51 | 42.36063 | -71.01466 | 31 ft | 22 kts | 19° |
| 2026-05-05 01:52 | 42.36217 | -71.01393 | 31 ft | 25 kts | 19° |
| 2026-05-05 01:52 | 42.36387 | -71.01309 | 31 ft | 26 kts | 20° |
| 2026-05-05 01:52 | 42.36541 | -71.01234 | 31 ft | 19 kts | 20° |
| 2026-05-05 01:52 | 42.36679 | -71.01168 | 31 ft | 23 kts | 19° |
| 2026-05-05 01:53 | 42.36806 | -71.01172 | 31 ft | 17 kts | 327° |
| 2026-05-05 01:53 | 42.36895 | -71.01291 | 31 ft | 20 kts | 313° |
| 2026-05-05 01:53 | 42.36999 | -71.01428 | 31 ft | 22 kts | 316° |
| 2026-05-05 01:53 | 42.37101 | -71.01563 | 31 ft | 19 kts | 315° |
| 2026-05-05 01:54 | 42.37200 | -71.01695 | 31 ft | 21 kts | 315° |
| 2026-05-05 01:54 | 42.37283 | -71.01807 | 31 ft | 13 kts | 313° |
| 2026-05-05 01:54 | 42.37271 | -71.01904 | 31 ft | 11 kts | 230° |
| 2026-05-05 01:54 | 42.37235 | -71.02004 | 31 ft | 13 kts | 270° |
| 2026-05-05 01:55 | 42.37229 | -71.02129 | 31 ft | 14 kts | 245° |
| 2026-05-05 01:55 | 42.37177 | -71.02200 | 31 ft | 7 kts | 204° |
| 2026-05-05 01:55 | 42.37131 | -71.02180 | 31 ft | 9 kts | 150° |
| 2026-05-05 01:55 | 42.37101 | -71.02156 | 31 ft | 1 kts | 148° |
| 2026-05-05 01:56 | 42.37094 | -71.02150 | 31 ft | 0 kts | 149° |